QFA80 RJTT-YMML
Flight info
| Callsign | QFA80 |
|---|---|
| Flight time | N/A |
| Altitude | 33000 |
| Route | VAMOS XAC B586 SABRI/N0476F340 B586 CADDY/N0476F350 B586 UKATA 25N141E/N0477F340 MONPI/N0480F350 DCT 15N141E 10N142E/N0479F360 05N142E/N0476F370 DCT KALIN/N0474F360 DCT VANKA DCT VIDAM DCT MKE/N0472F370 DCT BEGMI DCT KERIN DCT IKOLA DCT AGRAX DCT 25S142E/N0462F390 DCT LABOR DCT VAGPO DCT UVUPU J19 NATYA H119 ARBEY |
| Aircraft | A339/H-SADE1E2E3GHIJ3J5M1P2RWXY/LB2D1 |
Departure
| Time | 2026-05-05 14:00 |
|---|---|
| Airport | Tokyo Haneda International Airport (RJTT) |
Arrival
| Time | N/A |
|---|---|
| Airport | Melbourne Airport (YMML) |
| Time | Latitude | Longitude | Altitude | Speed | Heading |
|---|---|---|---|---|---|
| 2026-05-05 13:22 | 35.54837 | 139.76667 | 29 ft | 0 kts | 150° |
| 2026-05-05 13:47 | 35.54846 | 139.76661 | 28 ft | 3 kts | 148° |
| 2026-05-05 13:48 | 35.54865 | 139.76646 | 27 ft | 3 kts | 147° |
| 2026-05-05 13:48 | 35.54883 | 139.76632 | 27 ft | 3 kts | 161° |
| 2026-05-05 13:48 | 35.54899 | 139.76625 | 27 ft | 3 kts | 184° |
| 2026-05-05 13:48 | 35.54917 | 139.76625 | 28 ft | 3 kts | 218° |
| 2026-05-05 13:49 | 35.54930 | 139.76641 | 27 ft | 3 kts | 245° |
| 2026-05-05 13:49 | 35.54938 | 139.76662 | 28 ft | 1 kts | 240° |
| 2026-05-05 13:49 | 35.54940 | 139.76666 | 28 ft | 0 kts | 240° |
| 2026-05-05 13:53 | 35.54940 | 139.76665 | 28 ft | 1 kts | 240° |
| 2026-05-05 13:53 | 35.54927 | 139.76638 | 28 ft | 8 kts | 240° |
| 2026-05-05 13:54 | 35.54890 | 139.76564 | 28 ft | 12 kts | 238° |
| 2026-05-05 13:54 | 35.54859 | 139.76463 | 28 ft | 13 kts | 274° |
| 2026-05-05 13:54 | 35.54906 | 139.76412 | 28 ft | 6 kts | 347° |
| 2026-05-05 13:54 | 35.54947 | 139.76432 | 28 ft | 7 kts | 32° |
| 2026-05-05 13:55 | 35.54995 | 139.76473 | 28 ft | 10 kts | 37° |
| 2026-05-05 13:55 | 35.55055 | 139.76531 | 28 ft | 12 kts | 37° |
| 2026-05-05 13:55 | 35.55115 | 139.76585 | 28 ft | 13 kts | 36° |
| 2026-05-05 13:55 | 35.55198 | 139.76652 | 28 ft | 15 kts | 33° |
| 2026-05-05 13:56 | 35.55290 | 139.76726 | 28 ft | 17 kts | 33° |
| 2026-05-05 13:56 | 35.55388 | 139.76812 | 28 ft | 18 kts | 37° |
| 2026-05-05 13:56 | 35.55492 | 139.76906 | 28 ft | 19 kts | 33° |
| 2026-05-05 13:56 | 35.55606 | 139.76925 | 28 ft | 17 kts | 337° |
| 2026-05-05 13:57 | 35.55678 | 139.76821 | 29 ft | 15 kts | 307° |
| 2026-05-05 13:57 | 35.55741 | 139.76715 | 28 ft | 16 kts | 305° |
| 2026-05-05 13:57 | 35.55786 | 139.76655 | 28 ft | 3 kts | 323° |
| 2026-05-05 13:57 | 35.55815 | 139.76644 | 28 ft | 5 kts | 350° |
| 2026-05-05 13:58 | 35.55893 | 139.76706 | 28 ft | 20 kts | 47° |
| 2026-05-05 13:58 | 35.55985 | 139.76803 | 28 ft | 10 kts | 40° |
| 2026-05-05 13:58 | 35.56004 | 139.76876 | 28 ft | 9 kts | 98° |
| 2026-05-05 13:58 | 35.55971 | 139.76929 | 28 ft | 19 kts | 139° |
| 2026-05-05 13:59 | 35.54944 | 139.77650 | 29 ft | 150 kts | 150° |
| 2026-05-05 13:59 | 35.53904 | 139.78404 | 228 ft | 179 kts | 150° |
| 2026-05-05 14:00 | 35.51871 | 139.79926 | 1896 ft | 167 kts | 153° |
| 2026-05-05 14:00 | 35.50875 | 139.80631 | 2708 ft | 164 kts | 154° |
| 2026-05-05 14:00 | 35.49879 | 139.81299 | 3449 ft | 162 kts | 157° |
| 2026-05-05 14:00 | 35.48864 | 139.81934 | 3966 ft | 174 kts | 158° |
| 2026-05-05 14:01 | 35.47628 | 139.82625 | 3937 ft | 214 kts | 160° |
| 2026-05-05 14:01 | 35.46220 | 139.83364 | 4510 ft | 221 kts | 158° |
| 2026-05-05 14:01 | 35.44771 | 139.84212 | 4745 ft | 237 kts | 155° |
| 2026-05-05 14:01 | 35.43251 | 139.85101 | 4803 ft | 246 kts | 167° |
| 2026-05-05 14:02 | 35.41518 | 139.85169 | 5070 ft | 256 kts | 193° |
| 2026-05-05 14:02 | 35.39825 | 139.84529 | 5558 ft | 259 kts | 200° |
| 2026-05-05 14:02 | 35.38108 | 139.83771 | 6072 ft | 264 kts | 199° |
| 2026-05-05 14:02 | 35.36357 | 139.83050 | 6595 ft | 268 kts | 199° |
| 2026-05-05 14:03 | 35.34579 | 139.82305 | 7120 ft | 270 kts | 200° |
| 2026-05-05 14:03 | 35.32817 | 139.81499 | 7699 ft | 271 kts | 200° |
| 2026-05-05 14:03 | 35.31029 | 139.80724 | 8243 ft | 273 kts | 200° |
| 2026-05-05 14:03 | 35.29217 | 139.79957 | 8811 ft | 275 kts | 199° |
| 2026-05-05 14:04 | 35.27421 | 139.79197 | 9374 ft | 277 kts | 199° |
| 2026-05-05 14:04 | 35.25594 | 139.78418 | 9957 ft | 279 kts | 200° |
| 2026-05-05 14:04 | 35.23734 | 139.77621 | 10314 ft | 290 kts | 200° |
| 2026-05-05 14:04 | 35.21779 | 139.76779 | 10468 ft | 306 kts | 200° |
| 2026-05-05 14:05 | 35.19759 | 139.75747 | 10599 ft | 322 kts | 207° |
| 2026-05-05 14:05 | 35.17791 | 139.74358 | 10923 ft | 330 kts | 211° |
| 2026-05-05 14:05 | 35.15830 | 139.72934 | 11416 ft | 332 kts | 210° |
| 2026-05-05 14:05 | 35.13825 | 139.71495 | 11919 ft | 335 kts | 210° |
| 2026-05-05 14:06 | 35.11802 | 139.70054 | 12410 ft | 338 kts | 210° |
| 2026-05-05 14:06 | 35.09764 | 139.68606 | 12900 ft | 340 kts | 210° |
| 2026-05-05 14:06 | 35.07699 | 139.67141 | 13399 ft | 343 kts | 209° |
| 2026-05-05 14:06 | 35.05627 | 139.65672 | 13881 ft | 346 kts | 209° |
| 2026-05-05 14:07 | 35.03535 | 139.64189 | 14345 ft | 348 kts | 209° |
| 2026-05-05 14:07 | 35.01437 | 139.62702 | 14802 ft | 350 kts | 209° |
| 2026-05-05 14:07 | 34.99346 | 139.61222 | 15275 ft | 352 kts | 209° |
| 2026-05-05 14:07 | 34.97223 | 139.59721 | 15717 ft | 353 kts | 209° |
| 2026-05-05 14:08 | 34.95086 | 139.58211 | 16171 ft | 355 kts | 210° |
| 2026-05-05 14:08 | 34.92942 | 139.56696 | 16621 ft | 357 kts | 210° |
| 2026-05-05 14:08 | 34.90783 | 139.55173 | 17058 ft | 360 kts | 210° |
| 2026-05-05 14:08 | 34.88611 | 139.53640 | 17497 ft | 362 kts | 210° |
| 2026-05-05 14:09 | 34.86419 | 139.52095 | 17940 ft | 364 kts | 210° |
| 2026-05-05 14:09 | 34.84246 | 139.50563 | 18383 ft | 366 kts | 210° |
| 2026-05-05 14:09 | 34.82034 | 139.49005 | 18790 ft | 368 kts | 210° |
| 2026-05-05 14:09 | 34.79809 | 139.47441 | 19228 ft | 368 kts | 211° |
| 2026-05-05 14:10 | 34.77592 | 139.45884 | 19677 ft | 368 kts | 211° |
| 2026-05-05 14:10 | 34.75368 | 139.44323 | 20088 ft | 370 kts | 212° |
| 2026-05-05 14:10 | 34.73090 | 139.42846 | 20440 ft | 374 kts | 205° |
| 2026-05-05 14:10 | 34.70574 | 139.41990 | 20902 ft | 378 kts | 192° |
| 2026-05-05 14:11 | 34.67919 | 139.41881 | 21258 ft | 388 kts | 179° |
| 2026-05-05 14:11 | 34.65219 | 139.42341 | 21615 ft | 392 kts | 176° |
| 2026-05-05 14:11 | 34.62543 | 139.42809 | 21989 ft | 394 kts | 177° |
| 2026-05-05 14:11 | 34.59810 | 139.43267 | 22375 ft | 397 kts | 178° |
| 2026-05-05 14:12 | 34.57071 | 139.43714 | 22760 ft | 399 kts | 178° |
| 2026-05-05 14:12 | 34.54303 | 139.44160 | 23149 ft | 401 kts | 179° |
| 2026-05-05 14:12 | 34.51528 | 139.44605 | 23536 ft | 404 kts | 179° |
| 2026-05-05 14:12 | 34.48730 | 139.45053 | 23916 ft | 406 kts | 179° |
| 2026-05-05 14:13 | 34.45926 | 139.45503 | 24271 ft | 407 kts | 179° |
| 2026-05-05 14:13 | 34.43119 | 139.45954 | 24636 ft | 408 kts | 180° |
| 2026-05-05 14:13 | 34.40298 | 139.46407 | 25000 ft | 409 kts | 180° |
| 2026-05-05 14:13 | 34.37470 | 139.46860 | 25348 ft | 410 kts | 180° |
| 2026-05-05 14:14 | 34.34638 | 139.47314 | 25700 ft | 411 kts | 181° |
| 2026-05-05 14:14 | 34.31796 | 139.47768 | 26048 ft | 412 kts | 181° |
| 2026-05-05 14:14 | 34.28940 | 139.48225 | 26388 ft | 414 kts | 181° |
| 2026-05-05 14:14 | 34.26119 | 139.48676 | 26729 ft | 415 kts | 181° |
| 2026-05-05 14:15 | 34.23247 | 139.49134 | 27045 ft | 417 kts | 182° |
| 2026-05-05 14:15 | 34.20357 | 139.49595 | 27371 ft | 418 kts | 182° |
| 2026-05-05 14:15 | 34.17465 | 139.50056 | 27694 ft | 420 kts | 182° |
| 2026-05-05 14:15 | 34.14557 | 139.50519 | 28007 ft | 421 kts | 182° |
| 2026-05-05 14:16 | 34.11643 | 139.50982 | 28323 ft | 423 kts | 182° |
| 2026-05-05 14:16 | 34.08720 | 139.51448 | 28659 ft | 424 kts | 183° |
| 2026-05-05 14:16 | 34.05784 | 139.51915 | 28935 ft | 426 kts | 183° |
| 2026-05-05 14:16 | 34.02829 | 139.52386 | 29251 ft | 428 kts | 183° |
| 2026-05-05 14:17 | 33.99909 | 139.52849 | 29535 ft | 429 kts | 183° |
| 2026-05-05 14:17 | 33.96943 | 139.53319 | 29828 ft | 431 kts | 184° |
| 2026-05-05 14:17 | 33.93967 | 139.53790 | 30138 ft | 432 kts | 184° |
| 2026-05-05 14:17 | 33.90979 | 139.54264 | 30418 ft | 433 kts | 184° |
| 2026-05-05 14:18 | 33.87981 | 139.54739 | 30709 ft | 434 kts | 184° |
| 2026-05-05 14:18 | 33.84983 | 139.55215 | 31010 ft | 434 kts | 184° |
| 2026-05-05 14:18 | 33.81987 | 139.55690 | 31299 ft | 435 kts | 184° |
| 2026-05-05 14:18 | 33.78986 | 139.56163 | 31583 ft | 435 kts | 184° |
| 2026-05-05 14:19 | 33.75974 | 139.56637 | 31864 ft | 436 kts | 184° |
| 2026-05-05 14:19 | 33.72964 | 139.57110 | 32144 ft | 436 kts | 184° |
| 2026-05-05 14:19 | 33.69951 | 139.57584 | 32424 ft | 437 kts | 184° |
| 2026-05-05 14:19 | 33.66972 | 139.58053 | 32668 ft | 438 kts | 184° |
| 2026-05-05 14:20 | 33.63940 | 139.58528 | 32900 ft | 439 kts | 184° |
| 2026-05-05 14:20 | 33.60909 | 139.59004 | 33099 ft | 440 kts | 184° |
| 2026-05-05 14:20 | 33.57863 | 139.59480 | 33258 ft | 441 kts | 184° |
| 2026-05-05 14:20 | 33.54816 | 139.59957 | 33424 ft | 442 kts | 184° |
| 2026-05-05 14:21 | 33.51765 | 139.60434 | 33562 ft | 443 kts | 184° |
| 2026-05-05 14:21 | 33.48736 | 139.60909 | 33686 ft | 444 kts | 184° |
| 2026-05-05 14:21 | 33.45664 | 139.61389 | 33812 ft | 444 kts | 184° |
| 2026-05-05 14:21 | 33.42594 | 139.61870 | 33974 ft | 444 kts | 184° |
| 2026-05-05 14:22 | 33.39561 | 139.62345 | 34131 ft | 444 kts | 183° |
| 2026-05-05 14:22 | 33.36498 | 139.62822 | 34276 ft | 443 kts | 183° |
| 2026-05-05 14:22 | 33.33437 | 139.63298 | 34400 ft | 444 kts | 183° |
| 2026-05-05 14:22 | 33.30368 | 139.63775 | 34507 ft | 444 kts | 183° |
| 2026-05-05 14:23 | 33.27306 | 139.64251 | 34613 ft | 445 kts | 182° |
| 2026-05-05 14:23 | 33.24228 | 139.64730 | 34708 ft | 445 kts | 182° |
| 2026-05-05 14:23 | 33.21142 | 139.65209 | 34813 ft | 446 kts | 182° |
| 2026-05-05 14:23 | 33.18059 | 139.65690 | 34919 ft | 446 kts | 182° |
| 2026-05-05 14:24 | 33.15020 | 139.66163 | 35037 ft | 446 kts | 182° |
| 2026-05-05 14:24 | 33.11939 | 139.66643 | 35152 ft | 446 kts | 182° |
| 2026-05-05 14:24 | 33.08853 | 139.67123 | 35260 ft | 447 kts | 182° |
| 2026-05-05 14:24 | 33.05764 | 139.67603 | 35370 ft | 447 kts | 182° |
| 2026-05-05 14:25 | 33.02677 | 139.68082 | 35477 ft | 447 kts | 182° |
| 2026-05-05 14:25 | 32.99587 | 139.68562 | 35583 ft | 448 kts | 182° |
| 2026-05-05 14:25 | 32.93397 | 139.69520 | 35742 ft | 449 kts | 182° |
| 2026-05-05 14:26 | 32.87183 | 139.70482 | 35915 ft | 451 kts | 182° |
| 2026-05-05 14:26 | 32.80979 | 139.71440 | 36063 ft | 452 kts | 182° |
| 2026-05-05 14:27 | 32.74724 | 139.72406 | 36214 ft | 454 kts | 182° |
| 2026-05-05 14:27 | 32.68445 | 139.73370 | 36353 ft | 456 kts | 182° |
| 2026-05-05 14:28 | 32.62129 | 139.74338 | 36502 ft | 458 kts | 183° |
| 2026-05-05 14:28 | 32.55836 | 139.75302 | 36631 ft | 459 kts | 183° |
| 2026-05-05 14:29 | 32.49487 | 139.76274 | 36782 ft | 461 kts | 183° |
| 2026-05-05 14:29 | 32.43109 | 139.77249 | 36925 ft | 462 kts | 183° |
| 2026-05-05 14:30 | 32.36714 | 139.78222 | 37079 ft | 463 kts | 183° |
| 2026-05-05 14:30 | 32.30364 | 139.79187 | 37235 ft | 464 kts | 183° |
| 2026-05-05 14:31 | 32.23961 | 139.80159 | 37419 ft | 464 kts | 183° |
| 2026-05-05 14:31 | 32.17546 | 139.81132 | 37592 ft | 464 kts | 183° |
| 2026-05-05 14:32 | 32.11143 | 139.82101 | 37764 ft | 464 kts | 183° |
| 2026-05-05 14:32 | 32.04749 | 139.83067 | 37940 ft | 464 kts | 183° |
| 2026-05-05 14:33 | 31.98376 | 139.84029 | 38109 ft | 463 kts | 183° |
| 2026-05-05 14:33 | 31.92016 | 139.84988 | 38279 ft | 463 kts | 184° |
| 2026-05-05 14:34 | 31.85617 | 139.85950 | 38428 ft | 463 kts | 184° |
| 2026-05-05 14:34 | 31.79223 | 139.86911 | 38582 ft | 463 kts | 184° |
| 2026-05-05 14:35 | 31.72816 | 139.87873 | 38710 ft | 463 kts | 184° |
| 2026-05-05 14:35 | 31.66417 | 139.88832 | 38856 ft | 463 kts | 184° |
| 2026-05-05 14:36 | 31.60058 | 139.89784 | 38985 ft | 463 kts | 183° |
| 2026-05-05 14:36 | 31.53674 | 139.90739 | 39104 ft | 462 kts | 183° |
| 2026-05-05 14:37 | 31.47291 | 139.91692 | 39227 ft | 462 kts | 183° |
| 2026-05-05 14:37 | 31.40911 | 139.92642 | 39256 ft | 462 kts | 183° |
| 2026-05-05 14:38 | 31.34530 | 139.93592 | 39254 ft | 461 kts | 183° |
| 2026-05-05 14:38 | 31.28184 | 139.94535 | 39256 ft | 462 kts | 183° |
| 2026-05-05 14:39 | 31.21806 | 139.95482 | 39255 ft | 461 kts | 183° |
| 2026-05-05 14:39 | 31.16504 | 139.96267 | 39256 ft | 462 kts | 183° |
| 2026-05-05 14:40 | 31.09045 | 139.97371 | 39256 ft | 462 kts | 183° |
| 2026-05-05 14:40 | 31.03763 | 139.98151 | 39257 ft | 462 kts | 183° |
| 2026-05-05 14:41 | 30.96352 | 139.99966 | 39249 ft | 476 kts | 172° |
| 2026-05-05 14:41 | 30.91089 | 140.01921 | 39250 ft | 477 kts | 172° |
| 2026-05-05 14:42 | 30.84753 | 140.04237 | 39250 ft | 476 kts | 172° |
| 2026-05-05 14:42 | 30.78411 | 140.06532 | 39249 ft | 476 kts | 172° |
| 2026-05-05 14:43 | 30.72078 | 140.08819 | 39252 ft | 476 kts | 172° |
| 2026-05-05 14:43 | 30.65752 | 140.11102 | 39248 ft | 476 kts | 172° |
| 2026-05-05 14:44 | 30.59420 | 140.13383 | 39252 ft | 476 kts | 172° |
| 2026-05-05 14:44 | 30.53134 | 140.15646 | 39242 ft | 476 kts | 172° |
| 2026-05-05 14:45 | 30.46801 | 140.17922 | 39245 ft | 476 kts | 172° |
| 2026-05-05 14:45 | 30.40473 | 140.20193 | 39247 ft | 476 kts | 172° |
| 2026-05-05 14:46 | 30.34148 | 140.22460 | 39248 ft | 475 kts | 172° |
| 2026-05-05 14:46 | 30.27856 | 140.24711 | 39238 ft | 475 kts | 172° |
| 2026-05-05 14:47 | 30.21531 | 140.26971 | 39237 ft | 475 kts | 172° |
| 2026-05-05 14:47 | 30.15203 | 140.29230 | 39239 ft | 475 kts | 172° |
| 2026-05-05 14:48 | 30.08873 | 140.31486 | 39236 ft | 475 kts | 172° |
| 2026-05-05 14:48 | 30.02583 | 140.33716 | 39237 ft | 474 kts | 173° |
| 2026-05-05 14:49 | 29.96190 | 140.35203 | 39238 ft | 462 kts | 182° |
| 2026-05-05 14:49 | 29.89809 | 140.36025 | 39232 ft | 462 kts | 182° |
| 2026-05-05 14:50 | 29.83400 | 140.36890 | 39229 ft | 463 kts | 182° |
| 2026-05-05 14:50 | 29.77033 | 140.37760 | 39225 ft | 464 kts | 182° |
| 2026-05-05 14:51 | 29.70604 | 140.38638 | 39224 ft | 464 kts | 182° |
| 2026-05-05 14:51 | 29.64179 | 140.39513 | 39231 ft | 465 kts | 182° |
| 2026-05-05 14:52 | 29.57727 | 140.40390 | 39220 ft | 466 kts | 182° |
| 2026-05-05 14:52 | 29.51273 | 140.41267 | 39217 ft | 468 kts | 182° |
| 2026-05-05 14:53 | 29.44830 | 140.42140 | 39223 ft | 469 kts | 182° |
| 2026-05-05 14:53 | 29.38338 | 140.43020 | 39218 ft | 470 kts | 182° |
| 2026-05-05 14:54 | 29.31835 | 140.43899 | 39220 ft | 471 kts | 182° |
| 2026-05-05 14:54 | 29.25304 | 140.44782 | 39217 ft | 472 kts | 181° |
| 2026-05-05 14:55 | 29.18813 | 140.45658 | 39217 ft | 473 kts | 181° |
| 2026-05-05 14:55 | 29.12281 | 140.46538 | 39223 ft | 473 kts | 181° |
| 2026-05-05 14:56 | 29.05739 | 140.47418 | 39224 ft | 473 kts | 181° |
| 2026-05-05 14:56 | 28.99209 | 140.48297 | 39211 ft | 471 kts | 181° |
| 2026-05-05 14:57 | 28.92705 | 140.49171 | 39210 ft | 470 kts | 181° |
| 2026-05-05 14:57 | 28.86256 | 140.50034 | 39209 ft | 469 kts | 181° |
| 2026-05-05 14:58 | 28.79777 | 140.50902 | 39210 ft | 467 kts | 181° |
| 2026-05-05 14:58 | 28.73313 | 140.51766 | 39208 ft | 466 kts | 181° |
| 2026-05-05 14:59 | 28.66909 | 140.52621 | 39201 ft | 466 kts | 181° |
| 2026-05-05 14:59 | 28.60453 | 140.53482 | 39199 ft | 465 kts | 180° |
| 2026-05-05 15:00 | 28.55105 | 140.54195 | 39198 ft | 465 kts | 180° |
| 2026-05-05 15:00 | 28.47585 | 140.55196 | 39195 ft | 465 kts | 180° |
| 2026-05-05 15:01 | 28.41198 | 140.56045 | 39195 ft | 465 kts | 180° |
| 2026-05-05 15:01 | 28.34759 | 140.56899 | 39195 ft | 465 kts | 180° |
| 2026-05-05 15:02 | 28.28337 | 140.57751 | 39188 ft | 464 kts | 180° |
| 2026-05-05 15:02 | 28.21909 | 140.58603 | 39190 ft | 464 kts | 180° |
| 2026-05-05 15:03 | 28.15492 | 140.59451 | 39192 ft | 464 kts | 180° |
| 2026-05-05 15:03 | 28.09064 | 140.60299 | 39188 ft | 465 kts | 180° |
| 2026-05-05 15:04 | 28.02668 | 140.61144 | 39186 ft | 465 kts | 180° |
| 2026-05-05 15:04 | 27.96237 | 140.61991 | 39190 ft | 465 kts | 180° |
| 2026-05-05 15:05 | 27.86578 | 140.63263 | 39182 ft | 466 kts | 180° |
| 2026-05-05 15:06 | 27.80166 | 140.64105 | 39183 ft | 466 kts | 180° |
| 2026-05-05 15:06 | 27.73725 | 140.64950 | 39184 ft | 467 kts | 180° |
| 2026-05-05 15:07 | 27.67252 | 140.65799 | 39186 ft | 467 kts | 179° |
| 2026-05-05 15:07 | 27.60788 | 140.66645 | 39191 ft | 467 kts | 179° |
| 2026-05-05 15:08 | 27.54374 | 140.67484 | 39186 ft | 467 kts | 179° |
| 2026-05-05 15:08 | 27.47915 | 140.68328 | 39197 ft | 467 kts | 179° |
| 2026-05-05 15:09 | 27.41464 | 140.69169 | 39197 ft | 467 kts | 179° |
| 2026-05-05 15:09 | 27.35008 | 140.70011 | 39187 ft | 467 kts | 179° |
| 2026-05-05 15:10 | 27.28544 | 140.70852 | 39186 ft | 467 kts | 179° |
| 2026-05-05 15:10 | 27.22080 | 140.71692 | 39181 ft | 467 kts | 179° |
| 2026-05-05 15:11 | 27.15654 | 140.72527 | 39177 ft | 467 kts | 179° |
| 2026-05-05 15:11 | 27.09150 | 140.73370 | 39175 ft | 467 kts | 179° |
| 2026-05-05 15:12 | 27.02735 | 140.74202 | 39180 ft | 467 kts | 179° |
| 2026-05-05 15:12 | 26.96267 | 140.75039 | 39180 ft | 468 kts | 179° |
| 2026-05-05 15:13 | 26.89790 | 140.75876 | 39184 ft | 468 kts | 179° |
| 2026-05-05 15:13 | 26.83322 | 140.76712 | 39183 ft | 467 kts | 179° |
| 2026-05-05 15:14 | 26.76888 | 140.77542 | 39183 ft | 467 kts | 179° |
| 2026-05-05 15:14 | 26.70429 | 140.78374 | 39183 ft | 467 kts | 179° |
| 2026-05-05 15:15 | 26.63969 | 140.79206 | 39181 ft | 466 kts | 179° |
| 2026-05-05 15:15 | 26.57520 | 140.80035 | 39184 ft | 466 kts | 179° |
| 2026-05-05 15:16 | 26.51126 | 140.80857 | 39172 ft | 464 kts | 179° |
| 2026-05-05 15:16 | 26.44706 | 140.81680 | 39171 ft | 464 kts | 179° |
| 2026-05-05 15:17 | 26.38287 | 140.82501 | 39171 ft | 463 kts | 179° |
| 2026-05-05 15:17 | 26.31879 | 140.83321 | 39167 ft | 463 kts | 179° |
| 2026-05-05 15:18 | 26.25472 | 140.84141 | 39166 ft | 463 kts | 178° |
| 2026-05-05 15:18 | 26.19058 | 140.84959 | 39167 ft | 463 kts | 178° |
| 2026-05-05 15:19 | 26.12687 | 140.85771 | 39168 ft | 463 kts | 178° |
| 2026-05-05 15:19 | 26.06273 | 140.86588 | 39168 ft | 463 kts | 178° |
| 2026-05-05 15:20 | 25.99863 | 140.87404 | 39168 ft | 463 kts | 178° |
| 2026-05-05 15:20 | 25.93446 | 140.88220 | 39165 ft | 464 kts | 178° |
| 2026-05-05 15:21 | 25.87072 | 140.89029 | 39161 ft | 464 kts | 178° |
| 2026-05-05 15:21 | 25.80657 | 140.89843 | 39159 ft | 464 kts | 178° |
| 2026-05-05 15:22 | 25.74236 | 140.90656 | 39163 ft | 464 kts | 178° |
| 2026-05-05 15:22 | 25.67816 | 140.91469 | 39157 ft | 464 kts | 178° |
| 2026-05-05 15:23 | 25.61391 | 140.92281 | 39151 ft | 464 kts | 178° |
| 2026-05-05 15:23 | 25.55011 | 140.93087 | 39160 ft | 464 kts | 178° |
| 2026-05-05 15:24 | 25.48586 | 140.93897 | 39152 ft | 464 kts | 178° |
| 2026-05-05 15:24 | 25.42163 | 140.94706 | 39148 ft | 464 kts | 178° |
| 2026-05-05 15:25 | 25.35787 | 140.95509 | 39155 ft | 464 kts | 178° |
| 2026-05-05 15:25 | 25.29370 | 140.96316 | 39156 ft | 463 kts | 178° |
| 2026-05-05 15:26 | 25.22962 | 140.97120 | 39151 ft | 463 kts | 178° |
| 2026-05-05 15:26 | 25.16544 | 140.97925 | 39151 ft | 463 kts | 178° |
| 2026-05-05 15:27 | 25.11223 | 140.98593 | 39153 ft | 463 kts | 178° |
| 2026-05-05 15:27 | 25.04812 | 140.99396 | 39147 ft | 463 kts | 178° |
| 2026-05-05 15:28 | 24.98399 | 140.99779 | 39148 ft | 458 kts | 186° |
| 2026-05-05 15:28 | 24.92113 | 140.99204 | 39145 ft | 456 kts | 189° |
| 2026-05-05 15:29 | 24.85789 | 140.98534 | 39148 ft | 456 kts | 189° |
| 2026-05-05 15:29 | 24.79465 | 140.97884 | 39141 ft | 456 kts | 189° |
| 2026-05-05 15:30 | 24.73131 | 140.97234 | 39141 ft | 457 kts | 189° |
| 2026-05-05 15:30 | 24.66804 | 140.96586 | 39142 ft | 457 kts | 189° |
| 2026-05-05 15:31 | 24.60466 | 140.95936 | 39136 ft | 457 kts | 189° |
| 2026-05-05 15:31 | 24.54122 | 140.95286 | 39136 ft | 458 kts | 189° |
| 2026-05-05 15:32 | 24.47812 | 140.94640 | 39136 ft | 458 kts | 189° |
| 2026-05-05 15:32 | 24.41457 | 140.93991 | 39131 ft | 459 kts | 188° |
| 2026-05-05 15:33 | 24.35091 | 140.93341 | 39128 ft | 459 kts | 188° |
| 2026-05-05 15:33 | 24.28711 | 140.92691 | 39131 ft | 460 kts | 188° |
| 2026-05-05 15:34 | 24.22338 | 140.92041 | 39132 ft | 460 kts | 188° |
| 2026-05-05 15:34 | 24.15960 | 140.91392 | 39133 ft | 460 kts | 188° |
| 2026-05-05 15:35 | 24.09574 | 140.90743 | 39129 ft | 461 kts | 188° |
| 2026-05-05 15:35 | 24.03225 | 140.90098 | 39124 ft | 461 kts | 188° |
| 2026-05-05 15:36 | 23.96823 | 140.89448 | 39127 ft | 461 kts | 188° |
| 2026-05-05 15:36 | 23.90424 | 140.88800 | 39122 ft | 462 kts | 188° |
| 2026-05-05 15:37 | 23.84058 | 140.88155 | 39123 ft | 462 kts | 188° |
| 2026-05-05 15:37 | 23.77641 | 140.87506 | 39117 ft | 462 kts | 188° |
| 2026-05-05 15:38 | 23.71265 | 140.86862 | 39121 ft | 463 kts | 188° |
| 2026-05-05 15:38 | 23.64842 | 140.86213 | 39121 ft | 463 kts | 188° |
| 2026-05-05 15:39 | 23.58425 | 140.85566 | 39116 ft | 463 kts | 188° |
| 2026-05-05 15:39 | 23.52004 | 140.84919 | 39117 ft | 464 kts | 188° |
| 2026-05-05 15:40 | 23.45571 | 140.84271 | 39113 ft | 464 kts | 188° |
| 2026-05-05 15:40 | 23.39129 | 140.83624 | 39115 ft | 464 kts | 188° |
| 2026-05-05 15:41 | 23.32683 | 140.82976 | 39114 ft | 465 kts | 188° |
| 2026-05-05 15:41 | 23.26281 | 140.82333 | 39111 ft | 465 kts | 188° |
| 2026-05-05 15:42 | 23.19822 | 140.81685 | 39111 ft | 466 kts | 188° |
| 2026-05-05 15:42 | 23.13367 | 140.81040 | 39103 ft | 466 kts | 187° |
| 2026-05-05 15:43 | 23.06903 | 140.80393 | 39106 ft | 466 kts | 188° |
| 2026-05-05 15:43 | 23.00422 | 140.79744 | 39109 ft | 467 kts | 187° |
| 2026-05-05 15:44 | 22.93998 | 140.79102 | 39105 ft | 467 kts | 187° |
| 2026-05-05 15:44 | 22.87530 | 140.78456 | 39106 ft | 467 kts | 187° |
| 2026-05-05 15:45 | 22.81038 | 140.77809 | 39104 ft | 467 kts | 187° |
| 2026-05-05 15:45 | 22.74553 | 140.77163 | 39102 ft | 468 kts | 187° |
| 2026-05-05 15:46 | 22.68065 | 140.76518 | 39100 ft | 468 kts | 187° |
| 2026-05-05 15:46 | 22.61606 | 140.75876 | 39096 ft | 468 kts | 187° |
| 2026-05-05 15:47 | 22.55111 | 140.75231 | 39099 ft | 468 kts | 187° |
| 2026-05-05 15:47 | 22.48629 | 140.74588 | 39097 ft | 468 kts | 187° |
| 2026-05-05 15:48 | 22.42129 | 140.73943 | 39092 ft | 468 kts | 187° |
| 2026-05-05 15:48 | 22.35675 | 140.73304 | 39091 ft | 469 kts | 187° |
| 2026-05-05 15:49 | 22.29169 | 140.72660 | 39091 ft | 469 kts | 187° |
| 2026-05-05 15:49 | 22.22671 | 140.72018 | 39087 ft | 469 kts | 187° |
| 2026-05-05 15:50 | 22.16159 | 140.71374 | 39086 ft | 469 kts | 187° |
| 2026-05-05 15:50 | 22.09659 | 140.70734 | 39084 ft | 469 kts | 187° |
| 2026-05-05 15:51 | 22.03195 | 140.70096 | 39084 ft | 469 kts | 187° |
| 2026-05-05 15:51 | 21.96687 | 140.69456 | 39076 ft | 469 kts | 187° |
| 2026-05-05 15:52 | 21.90176 | 140.68815 | 39081 ft | 469 kts | 187° |
| 2026-05-05 15:52 | 21.83668 | 140.68174 | 39079 ft | 469 kts | 187° |
| 2026-05-05 15:53 | 21.77163 | 140.67534 | 39078 ft | 469 kts | 187° |
| 2026-05-05 15:53 | 21.70681 | 140.66898 | 39077 ft | 469 kts | 187° |
| 2026-05-05 15:54 | 21.64166 | 140.66259 | 39072 ft | 469 kts | 187° |
| 2026-05-05 15:54 | 21.57649 | 140.65620 | 39072 ft | 469 kts | 187° |
| 2026-05-05 15:55 | 21.51192 | 140.64988 | 39070 ft | 469 kts | 187° |
| 2026-05-05 15:55 | 21.44668 | 140.64353 | 39069 ft | 468 kts | 187° |
| 2026-05-05 15:56 | 21.38175 | 140.63718 | 39067 ft | 468 kts | 187° |
| 2026-05-05 15:56 | 21.31719 | 140.63086 | 39068 ft | 468 kts | 187° |
| 2026-05-05 15:57 | 21.25211 | 140.62451 | 39068 ft | 468 kts | 187° |
| 2026-05-05 15:57 | 21.18761 | 140.61823 | 39065 ft | 468 kts | 187° |
| 2026-05-05 15:58 | 21.12265 | 140.61191 | 39061 ft | 468 kts | 187° |
| 2026-05-05 15:58 | 21.05766 | 140.60559 | 39062 ft | 469 kts | 187° |
| 2026-05-05 15:59 | 20.99238 | 140.60096 | 39060 ft | 470 kts | 181° |
| 2026-05-05 15:59 | 20.92735 | 140.60486 | 39061 ft | 471 kts | 178° |
| 2026-05-05 16:00 | 20.86180 | 140.60955 | 39060 ft | 472 kts | 178° |
| 2026-05-05 16:00 | 20.79610 | 140.61409 | 39056 ft | 472 kts | 178° |
| 2026-05-05 16:01 | 20.73086 | 140.61855 | 39056 ft | 472 kts | 178° |
| 2026-05-05 16:01 | 20.66512 | 140.62312 | 39058 ft | 473 kts | 178° |
| 2026-05-05 16:02 | 20.59941 | 140.62762 | 39053 ft | 473 kts | 178° |
| 2026-05-05 16:02 | 20.53355 | 140.63214 | 39052 ft | 473 kts | 178° |
| 2026-05-05 16:03 | 20.46802 | 140.63661 | 39050 ft | 475 kts | 178° |
| 2026-05-05 16:03 | 20.40198 | 140.64112 | 39048 ft | 475 kts | 178° |
| 2026-05-05 16:04 | 20.33587 | 140.64568 | 39046 ft | 475 kts | 178° |
| 2026-05-05 16:04 | 20.26974 | 140.65022 | 39050 ft | 476 kts | 178° |
| 2026-05-05 16:05 | 20.20397 | 140.65473 | 39051 ft | 476 kts | 178° |
| 2026-05-05 16:05 | 20.13770 | 140.65926 | 39050 ft | 476 kts | 178° |
| 2026-05-05 16:06 | 20.07184 | 140.66376 | 39048 ft | 477 kts | 178° |
| 2026-05-05 16:06 | 20.00541 | 140.66831 | 39044 ft | 477 kts | 178° |
| 2026-05-05 16:07 | 19.93917 | 140.67282 | 39048 ft | 477 kts | 178° |
| 2026-05-05 16:07 | 19.87285 | 140.67734 | 39042 ft | 478 kts | 178° |
| 2026-05-05 16:08 | 19.80685 | 140.68181 | 39039 ft | 478 kts | 178° |
| 2026-05-05 16:08 | 19.74043 | 140.68633 | 39041 ft | 478 kts | 178° |
| 2026-05-05 16:09 | 19.67392 | 140.69088 | 39037 ft | 478 kts | 178° |
| 2026-05-05 16:09 | 19.60746 | 140.69538 | 39038 ft | 478 kts | 178° |
| 2026-05-05 16:10 | 19.54099 | 140.69989 | 39036 ft | 478 kts | 178° |
| 2026-05-05 16:10 | 19.47458 | 140.70440 | 39031 ft | 478 kts | 178° |
| 2026-05-05 16:11 | 19.40802 | 140.70889 | 39030 ft | 478 kts | 178° |
| 2026-05-05 16:12 | 19.27551 | 140.71785 | 39028 ft | 479 kts | 178° |
| 2026-05-05 16:13 | 19.12035 | 140.72834 | 39020 ft | 479 kts | 178° |
| 2026-05-05 16:13 | 19.05373 | 140.73284 | 39021 ft | 479 kts | 178° |
| 2026-05-05 16:14 | 18.90993 | 140.74253 | 39018 ft | 479 kts | 178° |
| 2026-05-05 16:15 | 18.78790 | 140.75072 | 39019 ft | 479 kts | 178° |
| 2026-05-05 16:16 | 18.65462 | 140.75967 | 39015 ft | 480 kts | 178° |
| 2026-05-05 16:17 | 18.55491 | 140.76637 | 39010 ft | 480 kts | 178° |
| 2026-05-05 16:18 | 18.45476 | 140.77306 | 39010 ft | 480 kts | 178° |
| 2026-05-05 16:19 | 18.35472 | 140.77978 | 39007 ft | 480 kts | 178° |
| 2026-05-05 16:19 | 18.25495 | 140.78643 | 39002 ft | 479 kts | 178° |
| 2026-05-05 16:20 | 18.12207 | 140.79529 | 39005 ft | 479 kts | 179° |
| 2026-05-05 16:22 | 17.95611 | 140.80635 | 39001 ft | 478 kts | 179° |
| 2026-05-05 16:23 | 17.82351 | 140.81517 | 38994 ft | 477 kts | 179° |
| 2026-05-05 16:23 | 17.72403 | 140.82176 | 38993 ft | 477 kts | 179° |
| 2026-05-05 16:24 | 17.65772 | 140.82616 | 38986 ft | 477 kts | 179° |
| 2026-05-05 16:25 | 17.55866 | 140.83274 | 38988 ft | 476 kts | 179° |
| 2026-05-05 16:25 | 17.45934 | 140.83931 | 38984 ft | 476 kts | 179° |
| 2026-05-05 16:26 | 17.32718 | 140.84806 | 38978 ft | 475 kts | 179° |
| 2026-05-05 16:27 | 17.26114 | 140.85242 | 38977 ft | 475 kts | 179° |
| 2026-05-05 16:27 | 17.19544 | 140.85674 | 38970 ft | 475 kts | 179° |
| 2026-05-05 16:28 | 17.12924 | 140.86109 | 38969 ft | 476 kts | 179° |
| 2026-05-05 16:28 | 17.06338 | 140.86546 | 38966 ft | 476 kts | 179° |
| 2026-05-05 16:29 | 16.99712 | 140.86983 | 38968 ft | 476 kts | 179° |
| 2026-05-05 16:29 | 16.93074 | 140.87420 | 38970 ft | 476 kts | 179° |
| 2026-05-05 16:30 | 16.86485 | 140.87854 | 38968 ft | 476 kts | 179° |
| 2026-05-05 16:30 | 16.79877 | 140.88288 | 38968 ft | 477 kts | 179° |
| 2026-05-05 16:31 | 16.73249 | 140.88723 | 38968 ft | 477 kts | 179° |
| 2026-05-05 16:31 | 16.66651 | 140.89156 | 38965 ft | 477 kts | 179° |
| 2026-05-05 16:32 | 16.60029 | 140.89590 | 38961 ft | 477 kts | 179° |
| 2026-05-05 16:32 | 16.53388 | 140.90026 | 38952 ft | 477 kts | 179° |
| 2026-05-05 16:33 | 16.46766 | 140.90460 | 38954 ft | 477 kts | 179° |
| 2026-05-05 16:33 | 16.40175 | 140.90891 | 38952 ft | 477 kts | 179° |
| 2026-05-05 16:34 | 16.33540 | 140.91325 | 38965 ft | 477 kts | 179° |
| 2026-05-05 16:34 | 16.26896 | 140.91760 | 38959 ft | 477 kts | 179° |
| 2026-05-05 16:35 | 16.20275 | 140.92192 | 38965 ft | 477 kts | 179° |
| 2026-05-05 16:35 | 16.13686 | 140.92622 | 38948 ft | 477 kts | 180° |
| 2026-05-05 16:36 | 16.07046 | 140.93056 | 38958 ft | 477 kts | 180° |
| 2026-05-05 16:36 | 16.00416 | 140.93488 | 38950 ft | 476 kts | 180° |
| 2026-05-05 16:37 | 15.93825 | 140.93917 | 38949 ft | 476 kts | 180° |
| 2026-05-05 16:37 | 15.87198 | 140.94349 | 38955 ft | 476 kts | 180° |
| 2026-05-05 16:38 | 15.80584 | 140.94779 | 38947 ft | 476 kts | 180° |
| 2026-05-05 16:38 | 15.73984 | 140.95208 | 38944 ft | 476 kts | 180° |
| 2026-05-05 16:39 | 15.67371 | 140.95638 | 38945 ft | 475 kts | 180° |
| 2026-05-05 16:39 | 15.60813 | 140.96064 | 38943 ft | 475 kts | 180° |
| 2026-05-05 16:40 | 15.54206 | 140.96493 | 38938 ft | 475 kts | 180° |
| 2026-05-05 16:40 | 15.47612 | 140.96920 | 38938 ft | 474 kts | 180° |
| 2026-05-05 16:41 | 15.41005 | 140.97349 | 38937 ft | 474 kts | 180° |
| 2026-05-05 16:41 | 15.34413 | 140.97776 | 38938 ft | 474 kts | 180° |
| 2026-05-05 16:42 | 15.27866 | 140.98199 | 38930 ft | 474 kts | 180° |
| 2026-05-05 16:42 | 15.21267 | 140.98626 | 38927 ft | 474 kts | 180° |
| 2026-05-05 16:43 | 15.14685 | 140.99052 | 38929 ft | 474 kts | 180° |
| 2026-05-05 16:43 | 15.08103 | 140.99477 | 38927 ft | 474 kts | 180° |
| 2026-05-05 16:44 | 15.01554 | 140.99908 | 38928 ft | 474 kts | 178° |
| 2026-05-05 16:44 | 14.95006 | 141.00996 | 38917 ft | 477 kts | 172° |
| 2026-05-05 16:45 | 14.88519 | 141.02342 | 38923 ft | 477 kts | 172° |
| 2026-05-05 16:45 | 14.82000 | 141.03673 | 38924 ft | 477 kts | 172° |
| 2026-05-05 16:46 | 14.75472 | 141.05002 | 38917 ft | 478 kts | 172° |
| 2026-05-05 16:46 | 14.68935 | 141.06334 | 38921 ft | 478 kts | 172° |
| 2026-05-05 16:47 | 14.62410 | 141.07663 | 38914 ft | 478 kts | 172° |
| 2026-05-05 16:47 | 14.55916 | 141.08984 | 38909 ft | 478 kts | 172° |
| 2026-05-05 16:48 | 14.49379 | 141.10313 | 38912 ft | 478 kts | 172° |
| 2026-05-05 16:48 | 14.42822 | 141.11646 | 38911 ft | 479 kts | 172° |
| 2026-05-05 16:49 | 14.36326 | 141.12965 | 38912 ft | 479 kts | 172° |
| 2026-05-05 16:49 | 14.29784 | 141.14293 | 38908 ft | 479 kts | 172° |
| 2026-05-05 16:50 | 14.23237 | 141.15621 | 38917 ft | 479 kts | 171° |
| 2026-05-05 16:50 | 14.16682 | 141.16950 | 38911 ft | 479 kts | 171° |
| 2026-05-05 16:51 | 14.10125 | 141.18279 | 38911 ft | 480 kts | 171° |
| 2026-05-05 16:51 | 14.03577 | 141.19605 | 38913 ft | 480 kts | 171° |
| 2026-05-05 16:52 | 13.97062 | 141.20923 | 38906 ft | 479 kts | 171° |
| 2026-05-05 16:52 | 13.90500 | 141.22251 | 38907 ft | 479 kts | 171° |
| 2026-05-05 16:53 | 13.83965 | 141.23571 | 38908 ft | 479 kts | 171° |
| 2026-05-05 16:53 | 13.77403 | 141.24896 | 38904 ft | 479 kts | 171° |
| 2026-05-05 16:54 | 13.70862 | 141.26217 | 38901 ft | 479 kts | 171° |
| 2026-05-05 16:54 | 13.64347 | 141.27533 | 38901 ft | 479 kts | 171° |
| 2026-05-05 16:55 | 13.57800 | 141.28853 | 38900 ft | 478 kts | 171° |
| 2026-05-05 16:55 | 13.51252 | 141.30173 | 38901 ft | 478 kts | 171° |
| 2026-05-05 16:56 | 13.44752 | 141.31481 | 38901 ft | 478 kts | 171° |
| 2026-05-05 16:56 | 13.38228 | 141.32793 | 38898 ft | 478 kts | 171° |
| 2026-05-05 16:57 | 13.31702 | 141.34106 | 38895 ft | 477 kts | 171° |
| 2026-05-05 16:57 | 13.25207 | 141.35415 | 38892 ft | 477 kts | 171° |
| 2026-05-05 16:58 | 13.18688 | 141.36726 | 38893 ft | 477 kts | 171° |
| 2026-05-05 16:58 | 13.13219 | 141.37822 | 38893 ft | 477 kts | 171° |
| 2026-05-05 16:59 | 13.06747 | 141.39120 | 38887 ft | 476 kts | 171° |
| 2026-05-05 16:59 | 12.99174 | 141.40640 | 38887 ft | 476 kts | 171° |
| 2026-05-05 17:00 | 12.93757 | 141.41728 | 38886 ft | 476 kts | 171° |
| 2026-05-05 17:00 | 12.87262 | 141.43029 | 38884 ft | 475 kts | 171° |
| 2026-05-05 17:01 | 12.80768 | 141.44330 | 38883 ft | 475 kts | 170° |
| 2026-05-05 17:01 | 12.74265 | 141.45634 | 38882 ft | 475 kts | 170° |
| 2026-05-05 17:02 | 12.67777 | 141.46932 | 38875 ft | 475 kts | 170° |
| 2026-05-05 17:02 | 12.61292 | 141.48231 | 38876 ft | 475 kts | 170° |
| 2026-05-05 17:03 | 12.54802 | 141.49529 | 38884 ft | 475 kts | 170° |
| 2026-05-05 17:03 | 12.48348 | 141.50818 | 38876 ft | 475 kts | 170° |
| 2026-05-05 17:04 | 12.41851 | 141.52117 | 38873 ft | 475 kts | 170° |
| 2026-05-05 17:04 | 12.35345 | 141.53416 | 38874 ft | 475 kts | 170° |
| 2026-05-05 17:05 | 12.28851 | 141.54712 | 38867 ft | 476 kts | 170° |
| 2026-05-05 17:05 | 12.22377 | 141.56002 | 38870 ft | 476 kts | 170° |
| 2026-05-05 17:06 | 12.15864 | 141.57301 | 38866 ft | 476 kts | 170° |
| 2026-05-05 17:06 | 12.09391 | 141.58591 | 38867 ft | 476 kts | 170° |
| 2026-05-05 17:07 | 12.02876 | 141.59889 | 38866 ft | 477 kts | 169° |
| 2026-05-05 17:07 | 11.96360 | 141.61186 | 38863 ft | 477 kts | 169° |
| 2026-05-05 17:08 | 11.89832 | 141.62485 | 38862 ft | 478 kts | 169° |
| 2026-05-05 17:08 | 11.83344 | 141.63775 | 38864 ft | 478 kts | 169° |
| 2026-05-05 17:09 | 11.76796 | 141.65077 | 38860 ft | 479 kts | 169° |
| 2026-05-05 17:09 | 11.70242 | 141.66380 | 38856 ft | 479 kts | 169° |
| 2026-05-05 17:10 | 11.63696 | 141.67680 | 38854 ft | 480 kts | 169° |
| 2026-05-05 17:10 | 11.57166 | 141.68976 | 38849 ft | 480 kts | 169° |
| 2026-05-05 17:11 | 11.50582 | 141.70282 | 38848 ft | 481 kts | 169° |
| 2026-05-05 17:11 | 11.43997 | 141.71588 | 38851 ft | 482 kts | 169° |
| 2026-05-05 17:12 | 11.37456 | 141.72884 | 38852 ft | 482 kts | 169° |
| 2026-05-05 17:12 | 11.30870 | 141.74189 | 38852 ft | 482 kts | 169° |
| 2026-05-05 17:13 | 11.24270 | 141.75496 | 38851 ft | 482 kts | 169° |
| 2026-05-05 17:13 | 11.17682 | 141.76800 | 38852 ft | 482 kts | 169° |
| 2026-05-05 17:14 | 11.11140 | 141.78094 | 38852 ft | 480 kts | 169° |
| 2026-05-05 17:14 | 11.04568 | 141.79394 | 38846 ft | 480 kts | 169° |
| 2026-05-05 17:15 | 10.98017 | 141.80689 | 38846 ft | 479 kts | 169° |
| 2026-05-05 17:15 | 10.91481 | 141.81981 | 38850 ft | 477 kts | 169° |
| 2026-05-05 17:16 | 10.84991 | 141.83262 | 38847 ft | 478 kts | 169° |
| 2026-05-05 17:16 | 10.78449 | 141.84553 | 38848 ft | 477 kts | 169° |
| 2026-05-05 17:17 | 10.71957 | 141.85835 | 38843 ft | 477 kts | 169° |
| 2026-05-05 17:17 | 10.65423 | 141.87123 | 38840 ft | 477 kts | 169° |
| 2026-05-05 17:18 | 10.58891 | 141.88411 | 38844 ft | 477 kts | 169° |
| 2026-05-05 17:18 | 10.52394 | 141.89691 | 38846 ft | 477 kts | 169° |
| 2026-05-05 17:19 | 10.45879 | 141.90974 | 38842 ft | 477 kts | 169° |
| 2026-05-05 17:19 | 10.39342 | 141.92261 | 38841 ft | 477 kts | 169° |
| 2026-05-05 17:20 | 10.32815 | 141.93546 | 38836 ft | 477 kts | 169° |
| 2026-05-05 17:20 | 10.26295 | 141.94828 | 38838 ft | 477 kts | 169° |
| 2026-05-05 17:21 | 10.19806 | 141.96105 | 38833 ft | 477 kts | 169° |
| 2026-05-05 17:22 | 10.10005 | 141.98031 | 38833 ft | 478 kts | 169° |
| 2026-05-05 17:22 | 10.03462 | 141.99316 | 38830 ft | 478 kts | 169° |
| 2026-05-05 17:23 | 9.96884 | 142.00024 | 38828 ft | 478 kts | 179° |
| 2026-05-05 17:23 | 9.90221 | 141.99997 | 38822 ft | 479 kts | 180° |
| 2026-05-05 17:24 | 9.83537 | 141.99994 | 38823 ft | 480 kts | 180° |
| 2026-05-05 17:24 | 9.76848 | 141.99996 | 38829 ft | 480 kts | 180° |
| 2026-05-05 17:25 | 9.70162 | 141.99997 | 38826 ft | 481 kts | 180° |
| 2026-05-05 17:25 | 9.63493 | 141.99997 | 38832 ft | 481 kts | 180° |
| 2026-05-05 17:26 | 9.56774 | 141.99996 | 38833 ft | 482 kts | 180° |
| 2026-05-05 17:26 | 9.50068 | 141.99996 | 38831 ft | 482 kts | 179° |
| 2026-05-05 17:27 | 9.43344 | 141.99997 | 38826 ft | 482 kts | 179° |
| 2026-05-05 17:27 | 9.36681 | 141.99997 | 38828 ft | 481 kts | 179° |
| 2026-05-05 17:28 | 9.29985 | 141.99996 | 38823 ft | 481 kts | 179° |
| 2026-05-05 17:28 | 9.23285 | 141.99998 | 38827 ft | 481 kts | 179° |
| 2026-05-05 17:29 | 9.16592 | 141.99997 | 38827 ft | 479 kts | 179° |
| 2026-05-05 17:29 | 9.09913 | 141.99997 | 38823 ft | 479 kts | 179° |
| 2026-05-05 17:30 | 9.03293 | 141.99997 | 38824 ft | 478 kts | 179° |
| 2026-05-05 17:30 | 8.96635 | 141.99997 | 38823 ft | 477 kts | 179° |
| 2026-05-05 17:31 | 8.89969 | 141.99998 | 38823 ft | 477 kts | 179° |
| 2026-05-05 17:31 | 8.83358 | 141.99996 | 38827 ft | 477 kts | 179° |
| 2026-05-05 17:32 | 8.76698 | 141.99997 | 38825 ft | 477 kts | 179° |
| 2026-05-05 17:32 | 8.70061 | 141.99997 | 38824 ft | 477 kts | 179° |
| 2026-05-05 17:33 | 8.63458 | 141.99998 | 38821 ft | 477 kts | 179° |
| 2026-05-05 17:33 | 8.56831 | 141.99998 | 38820 ft | 477 kts | 179° |
| 2026-05-05 17:34 | 8.50182 | 141.99998 | 38821 ft | 476 kts | 179° |
| 2026-05-05 17:34 | 8.43558 | 141.99997 | 38825 ft | 476 kts | 179° |
| 2026-05-05 17:35 | 8.36973 | 141.99998 | 38826 ft | 475 kts | 179° |
| 2026-05-05 17:35 | 8.30358 | 141.99998 | 38826 ft | 475 kts | 179° |
| 2026-05-05 17:36 | 8.23740 | 141.99998 | 38818 ft | 475 kts | 179° |
| 2026-05-05 17:36 | 8.17115 | 141.99998 | 38817 ft | 474 kts | 179° |
| 2026-05-05 17:37 | 8.10554 | 141.99997 | 38817 ft | 474 kts | 179° |
| 2026-05-05 17:37 | 8.03945 | 141.99998 | 38814 ft | 474 kts | 179° |
| 2026-05-05 17:38 | 7.97350 | 141.99998 | 38817 ft | 473 kts | 179° |
| 2026-05-05 17:38 | 7.90758 | 141.99998 | 38820 ft | 473 kts | 179° |
| 2026-05-05 17:39 | 7.84206 | 141.99997 | 38808 ft | 473 kts | 179° |
| 2026-05-05 17:39 | 7.77609 | 141.99998 | 38811 ft | 473 kts | 179° |
| 2026-05-05 17:40 | 7.71013 | 141.99997 | 38807 ft | 473 kts | 179° |
| 2026-05-05 17:40 | 7.64410 | 141.99997 | 38808 ft | 473 kts | 179° |
| 2026-05-05 17:41 | 7.57851 | 141.99997 | 38809 ft | 473 kts | 179° |
| 2026-05-05 17:41 | 7.51259 | 141.99998 | 38808 ft | 473 kts | 179° |
| 2026-05-05 17:42 | 7.44646 | 141.99998 | 38810 ft | 473 kts | 179° |
| 2026-05-05 17:42 | 7.38088 | 141.99998 | 38812 ft | 474 kts | 179° |
| 2026-05-05 17:43 | 7.31500 | 141.99996 | 38813 ft | 474 kts | 179° |
| 2026-05-05 17:43 | 7.26006 | 141.99996 | 38807 ft | 474 kts | 179° |
| 2026-05-05 17:44 | 7.19402 | 141.99997 | 38803 ft | 474 kts | 179° |
| 2026-05-05 17:44 | 7.12793 | 141.99997 | 38805 ft | 474 kts | 179° |
| 2026-05-05 17:45 | 7.06185 | 141.99997 | 38808 ft | 474 kts | 179° |
| 2026-05-05 17:45 | 6.99631 | 141.99998 | 38814 ft | 475 kts | 179° |
| 2026-05-05 17:46 | 6.92992 | 141.99999 | 38807 ft | 475 kts | 179° |
| 2026-05-05 17:46 | 6.86404 | 141.99999 | 38812 ft | 475 kts | 179° |
| 2026-05-05 17:47 | 6.79776 | 141.99999 | 38811 ft | 475 kts | 179° |
| 2026-05-05 17:47 | 6.73169 | 141.99999 | 38812 ft | 475 kts | 179° |
| 2026-05-05 17:48 | 6.66547 | 141.99999 | 38811 ft | 475 kts | 179° |
| 2026-05-05 17:48 | 6.59963 | 142.00000 | 38808 ft | 475 kts | 179° |
| 2026-05-05 17:49 | 6.53353 | 141.99999 | 38813 ft | 474 kts | 179° |
| 2026-05-05 17:49 | 6.46776 | 141.99999 | 38814 ft | 474 kts | 179° |
| 2026-05-05 17:50 | 6.40185 | 142.00000 | 38819 ft | 473 kts | 179° |
| 2026-05-05 17:50 | 6.33590 | 142.00000 | 38823 ft | 473 kts | 179° |
| 2026-05-05 17:51 | 6.27006 | 142.00000 | 38815 ft | 472 kts | 179° |
| 2026-05-05 17:51 | 6.20484 | 142.00000 | 38808 ft | 472 kts | 179° |
| 2026-05-05 17:52 | 6.13918 | 142.00000 | 38810 ft | 471 kts | 179° |
| 2026-05-05 17:52 | 6.07354 | 142.00000 | 38807 ft | 471 kts | 179° |
| 2026-05-05 17:53 | 6.00788 | 142.00000 | 38813 ft | 471 kts | 179° |
| 2026-05-05 17:53 | 5.94225 | 142.00000 | 38808 ft | 470 kts | 179° |
| 2026-05-05 17:54 | 5.87677 | 142.00000 | 38808 ft | 470 kts | 179° |
| 2026-05-05 17:54 | 5.81174 | 142.00000 | 38810 ft | 470 kts | 179° |
| 2026-05-05 17:55 | 5.74635 | 142.00000 | 38806 ft | 470 kts | 179° |
| 2026-05-05 17:55 | 5.68090 | 142.00000 | 38805 ft | 469 kts | 179° |
| 2026-05-05 17:56 | 5.61547 | 142.00000 | 38806 ft | 469 kts | 179° |
| 2026-05-05 17:56 | 5.55055 | 142.00000 | 38811 ft | 469 kts | 179° |
| 2026-05-05 17:57 | 5.48521 | 142.00000 | 38806 ft | 469 kts | 179° |
| 2026-05-05 17:57 | 5.41995 | 142.00000 | 38809 ft | 468 kts | 179° |
| 2026-05-05 17:58 | 5.35462 | 142.00000 | 38810 ft | 468 kts | 179° |
| 2026-05-05 17:58 | 5.28991 | 142.00000 | 38807 ft | 468 kts | 179° |
| 2026-05-05 17:59 | 5.22472 | 142.00000 | 38803 ft | 468 kts | 179° |
| 2026-05-05 17:59 | 5.15952 | 142.00000 | 38807 ft | 467 kts | 179° |
| 2026-05-05 18:00 | 5.09462 | 142.00000 | 38807 ft | 467 kts | 179° |
| 2026-05-05 18:00 | 5.02958 | 142.00000 | 38809 ft | 467 kts | 179° |
| 2026-05-05 18:01 | 4.96451 | 142.00000 | 38812 ft | 467 kts | 179° |
| 2026-05-05 18:01 | 4.89938 | 142.00000 | 38801 ft | 467 kts | 179° |
| 2026-05-05 18:02 | 4.83469 | 142.00000 | 38809 ft | 467 kts | 179° |
| 2026-05-05 18:02 | 4.76968 | 142.00000 | 38813 ft | 467 kts | 179° |
| 2026-05-05 18:03 | 4.70463 | 142.00000 | 38815 ft | 466 kts | 179° |
| 2026-05-05 18:03 | 4.63984 | 142.00000 | 38803 ft | 467 kts | 179° |
| 2026-05-05 18:04 | 4.57483 | 142.00000 | 38805 ft | 467 kts | 179° |
| 2026-05-05 18:04 | 4.50969 | 142.00000 | 38808 ft | 467 kts | 179° |
| 2026-05-05 18:05 | 4.44501 | 142.00000 | 38810 ft | 467 kts | 179° |
| 2026-05-05 18:05 | 4.37999 | 142.00000 | 38814 ft | 466 kts | 179° |
| 2026-05-05 18:06 | 4.31502 | 142.00000 | 38812 ft | 466 kts | 179° |
| 2026-05-05 18:06 | 4.25005 | 142.00001 | 38808 ft | 466 kts | 179° |
| 2026-05-05 18:07 | 4.18556 | 142.00001 | 38806 ft | 466 kts | 179° |
| 2026-05-05 18:07 | 4.12044 | 142.00001 | 38806 ft | 466 kts | 179° |
| 2026-05-05 18:08 | 4.05546 | 142.00000 | 38810 ft | 466 kts | 179° |
| 2026-05-05 18:08 | 3.99044 | 142.00001 | 38808 ft | 466 kts | 179° |
| 2026-05-05 18:09 | 3.92553 | 142.00001 | 38813 ft | 466 kts | 179° |
| 2026-05-05 18:09 | 3.86106 | 142.00001 | 38813 ft | 466 kts | 179° |
| 2026-05-05 18:10 | 3.79599 | 142.00001 | 38812 ft | 466 kts | 179° |
| 2026-05-05 18:10 | 3.73105 | 142.00001 | 38805 ft | 466 kts | 179° |
| 2026-05-05 18:11 | 3.66644 | 142.00001 | 38810 ft | 466 kts | 179° |
| 2026-05-05 18:11 | 3.60149 | 142.00002 | 38811 ft | 466 kts | 179° |
| 2026-05-05 18:12 | 3.53647 | 142.00002 | 38809 ft | 466 kts | 179° |
| 2026-05-05 18:12 | 3.47199 | 142.00002 | 38813 ft | 466 kts | 179° |
| 2026-05-05 18:13 | 3.40695 | 142.00002 | 38810 ft | 466 kts | 180° |
| 2026-05-05 18:13 | 3.34228 | 142.00002 | 38807 ft | 466 kts | 180° |
| 2026-05-05 18:14 | 3.27725 | 142.00002 | 38815 ft | 467 kts | 180° |
| 2026-05-05 18:14 | 3.21213 | 142.00002 | 38820 ft | 467 kts | 180° |
| 2026-05-05 18:15 | 3.14749 | 142.00002 | 38812 ft | 467 kts | 180° |
| 2026-05-05 18:15 | 3.08232 | 142.00001 | 38815 ft | 467 kts | 180° |
| 2026-05-05 18:16 | 3.01721 | 142.00001 | 38819 ft | 467 kts | 179° |
| 2026-05-05 18:16 | 2.95255 | 142.00001 | 38815 ft | 467 kts | 180° |
| 2026-05-05 18:17 | 2.88733 | 142.00001 | 38813 ft | 467 kts | 179° |
| 2026-05-05 18:17 | 2.82223 | 142.00001 | 38818 ft | 468 kts | 179° |
| 2026-05-05 18:18 | 2.75712 | 142.00001 | 38822 ft | 468 kts | 179° |
| 2026-05-05 18:18 | 2.69185 | 142.00001 | 38811 ft | 468 kts | 179° |
| 2026-05-05 18:19 | 2.62661 | 142.00002 | 38815 ft | 469 kts | 179° |
| 2026-05-05 18:19 | 2.56172 | 142.00001 | 38816 ft | 469 kts | 179° |
| 2026-05-05 18:20 | 2.49636 | 142.00001 | 38820 ft | 469 kts | 179° |
| 2026-05-05 18:20 | 2.43091 | 142.00002 | 38814 ft | 470 kts | 179° |
| 2026-05-05 18:21 | 2.36540 | 142.00001 | 38820 ft | 470 kts | 179° |
| 2026-05-05 18:21 | 2.30031 | 142.00002 | 38816 ft | 470 kts | 179° |
| 2026-05-05 18:22 | 2.23479 | 142.00002 | 38822 ft | 471 kts | 179° |
| 2026-05-05 18:22 | 2.16924 | 142.00002 | 38823 ft | 471 kts | 179° |
| 2026-05-05 18:23 | 2.10353 | 142.00002 | 38817 ft | 471 kts | 179° |
| 2026-05-05 18:23 | 2.03775 | 142.00002 | 38814 ft | 471 kts | 179° |
| 2026-05-05 18:24 | 1.97240 | 142.00001 | 38816 ft | 472 kts | 179° |
| 2026-05-05 18:24 | 1.90667 | 142.00002 | 38821 ft | 473 kts | 179° |
| 2026-05-05 18:25 | 1.84064 | 142.00002 | 38816 ft | 473 kts | 179° |
| 2026-05-05 18:25 | 1.77512 | 142.00002 | 38818 ft | 474 kts | 179° |
| 2026-05-05 18:26 | 1.70890 | 142.00002 | 38818 ft | 475 kts | 179° |
| 2026-05-05 18:26 | 1.65385 | 142.00001 | 38826 ft | 476 kts | 179° |
| 2026-05-05 18:27 | 1.58753 | 142.00001 | 38825 ft | 476 kts | 179° |
| 2026-05-05 18:27 | 1.52136 | 142.00001 | 38825 ft | 476 kts | 179° |
| 2026-05-05 18:28 | 1.42169 | 142.00001 | 38827 ft | 477 kts | 179° |
| 2026-05-05 18:28 | 1.35515 | 142.00001 | 38827 ft | 477 kts | 179° |
| 2026-05-05 18:29 | 1.28894 | 142.00002 | 38829 ft | 477 kts | 179° |
| 2026-05-05 18:29 | 1.22249 | 142.00001 | 38828 ft | 477 kts | 179° |
| 2026-05-05 18:30 | 1.15654 | 141.99999 | 38827 ft | 477 kts | 179° |
| 2026-05-05 18:30 | 1.08985 | 142.00000 | 38826 ft | 477 kts | 179° |
| 2026-05-05 18:31 | 1.02295 | 142.00000 | 38823 ft | 477 kts | 179° |
| 2026-05-05 18:31 | 0.95701 | 142.00000 | 38823 ft | 477 kts | 179° |
| 2026-05-05 18:32 | 0.89056 | 142.00000 | 38829 ft | 477 kts | 179° |
| 2026-05-05 18:32 | 0.82406 | 142.00000 | 38827 ft | 477 kts | 179° |
| 2026-05-05 18:33 | 0.75760 | 142.00000 | 38823 ft | 477 kts | 179° |
| 2026-05-05 18:33 | 0.69117 | 141.99999 | 38828 ft | 476 kts | 179° |
| 2026-05-05 18:34 | 0.62520 | 141.99999 | 38824 ft | 476 kts | 179° |
| 2026-05-05 18:34 | 0.55886 | 141.99999 | 38828 ft | 476 kts | 179° |
| 2026-05-05 18:35 | 0.49243 | 142.00000 | 38828 ft | 476 kts | 179° |
| 2026-05-05 18:35 | 0.42650 | 142.00000 | 38828 ft | 476 kts | 179° |
| 2026-05-05 18:36 | 0.36016 | 142.00000 | 38831 ft | 476 kts | 179° |
| 2026-05-05 18:36 | 0.29373 | 141.99999 | 38823 ft | 476 kts | 179° |
| 2026-05-05 18:37 | 0.22776 | 142.00000 | 38820 ft | 476 kts | 179° |
| 2026-05-05 18:37 | 0.16148 | 142.00000 | 38826 ft | 476 kts | 179° |
| 2026-05-05 18:38 | 0.09504 | 142.00000 | 38828 ft | 476 kts | 179° |
| 2026-05-05 18:38 | 0.02869 | 141.99789 | 38817 ft | 477 kts | 185° |
| 2026-05-05 18:39 | -0.03656 | 141.98542 | 38829 ft | 478 kts | 195° |
| 2026-05-05 18:39 | -0.09914 | 141.96359 | 38825 ft | 479 kts | 199° |
| 2026-05-05 18:40 | -0.16169 | 141.94054 | 38829 ft | 479 kts | 199° |
| 2026-05-05 18:40 | -0.22448 | 141.91754 | 38827 ft | 479 kts | 199° |
| 2026-05-05 18:41 | -0.28717 | 141.89454 | 38826 ft | 480 kts | 199° |
| 2026-05-05 18:41 | -0.34988 | 141.87152 | 38830 ft | 480 kts | 199° |
| 2026-05-05 18:42 | -0.41236 | 141.84858 | 38834 ft | 480 kts | 199° |
| 2026-05-05 18:42 | -0.47512 | 141.82553 | 38835 ft | 481 kts | 199° |
| 2026-05-05 18:43 | -0.53785 | 141.80250 | 38825 ft | 481 kts | 199° |
| 2026-05-05 18:43 | -0.60093 | 141.77934 | 38828 ft | 481 kts | 199° |
| 2026-05-05 18:44 | -0.66389 | 141.75623 | 38831 ft | 482 kts | 199° |
| 2026-05-05 18:44 | -0.72650 | 141.73326 | 38833 ft | 482 kts | 199° |
| 2026-05-05 18:45 | -0.78957 | 141.71011 | 38827 ft | 482 kts | 199° |
| 2026-05-05 18:45 | -0.85274 | 141.68692 | 38832 ft | 483 kts | 199° |
| 2026-05-05 18:46 | -0.91594 | 141.66372 | 38829 ft | 483 kts | 199° |
| 2026-05-05 18:46 | -0.97873 | 141.64067 | 38832 ft | 484 kts | 200° |
| 2026-05-05 18:47 | -1.04194 | 141.61745 | 38829 ft | 484 kts | 200° |
| 2026-05-05 18:47 | -1.10521 | 141.59422 | 38835 ft | 484 kts | 200° |
| 2026-05-05 18:48 | -1.16867 | 141.57092 | 38831 ft | 485 kts | 200° |
| 2026-05-05 18:48 | -1.23206 | 141.54764 | 38838 ft | 485 kts | 200° |
| 2026-05-05 18:49 | -1.29510 | 141.52449 | 38836 ft | 485 kts | 200° |
| 2026-05-05 18:49 | -1.35848 | 141.50121 | 38843 ft | 485 kts | 200° |
| 2026-05-05 18:50 | -1.42197 | 141.47789 | 38841 ft | 485 kts | 200° |
| 2026-05-05 18:50 | -1.48501 | 141.45473 | 38838 ft | 485 kts | 200° |
| 2026-05-05 18:51 | -1.54844 | 141.43143 | 38835 ft | 485 kts | 200° |
| 2026-05-05 18:51 | -1.61202 | 141.40808 | 38842 ft | 485 kts | 200° |
| 2026-05-05 18:52 | -1.67557 | 141.38473 | 38839 ft | 485 kts | 200° |
| 2026-05-05 18:52 | -1.73852 | 141.36159 | 38842 ft | 485 kts | 200° |
| 2026-05-05 18:53 | -1.80197 | 141.33827 | 38828 ft | 485 kts | 200° |
| 2026-05-05 18:53 | -1.86554 | 141.31491 | 38843 ft | 485 kts | 200° |
| 2026-05-05 18:54 | -1.92890 | 141.29162 | 38839 ft | 485 kts | 200° |
| 2026-05-05 18:54 | -1.99233 | 141.26830 | 38835 ft | 485 kts | 200° |
| 2026-05-05 18:55 | -2.05587 | 141.24494 | 38837 ft | 485 kts | 200° |
| 2026-05-05 18:55 | -2.11895 | 141.22175 | 38830 ft | 485 kts | 200° |
| 2026-05-05 18:56 | -2.18236 | 141.19844 | 38828 ft | 485 kts | 200° |
| 2026-05-05 18:56 | -2.24588 | 141.17508 | 38826 ft | 485 kts | 200° |
| 2026-05-05 18:57 | -2.30932 | 141.15175 | 38827 ft | 485 kts | 200° |
| 2026-05-05 18:57 | -2.37228 | 141.12859 | 38823 ft | 485 kts | 200° |
| 2026-05-05 18:58 | -2.43563 | 141.10530 | 38826 ft | 485 kts | 200° |
| 2026-05-05 18:58 | -2.49909 | 141.08195 | 38823 ft | 485 kts | 200° |
| 2026-05-05 18:59 | -2.56261 | 141.05858 | 38824 ft | 485 kts | 200° |
| 2026-05-05 18:59 | -2.62604 | 141.03525 | 38822 ft | 485 kts | 200° |
| 2026-05-05 19:00 | -2.68913 | 141.01235 | 38830 ft | 485 kts | 197° |
| 2026-05-05 19:00 | -2.75489 | 140.99722 | 38835 ft | 485 kts | 187° |
| 2026-05-05 19:01 | -2.82219 | 140.99083 | 38836 ft | 484 kts | 185° |
| 2026-05-05 19:01 | -2.88905 | 140.98470 | 38843 ft | 484 kts | 185° |
| 2026-05-05 19:02 | -2.95608 | 140.97849 | 38841 ft | 483 kts | 185° |
| 2026-05-05 19:02 | -3.02269 | 140.97235 | 38846 ft | 483 kts | 185° |
| 2026-05-05 19:03 | -3.08976 | 140.96618 | 38859 ft | 483 kts | 185° |
| 2026-05-05 19:03 | -3.15677 | 140.96002 | 38863 ft | 482 kts | 185° |
| 2026-05-05 19:04 | -3.22355 | 140.95387 | 38863 ft | 482 kts | 185° |
| 2026-05-05 19:04 | -3.28997 | 140.94776 | 38864 ft | 481 kts | 185° |
| 2026-05-05 19:05 | -3.35663 | 140.94163 | 38869 ft | 480 kts | 185° |
| 2026-05-05 19:05 | -3.42320 | 140.93550 | 38866 ft | 479 kts | 185° |
| 2026-05-05 19:06 | -3.48970 | 140.92938 | 38871 ft | 479 kts | 185° |
| 2026-05-05 19:06 | -3.55563 | 140.92331 | 38862 ft | 478 kts | 185° |
| 2026-05-05 19:07 | -3.61109 | 140.91819 | 38868 ft | 477 kts | 185° |
| 2026-05-05 19:07 | -3.68797 | 140.91111 | 38860 ft | 477 kts | 185° |
| 2026-05-05 19:08 | -3.74313 | 140.90603 | 38853 ft | 477 kts | 185° |
| 2026-05-05 19:08 | -3.80919 | 140.89995 | 38853 ft | 477 kts | 185° |
| 2026-05-05 19:09 | -3.87498 | 140.89388 | 38859 ft | 477 kts | 185° |
| 2026-05-05 19:09 | -3.94115 | 140.88778 | 38852 ft | 477 kts | 185° |
| 2026-05-05 19:10 | -4.00738 | 140.88168 | 38853 ft | 477 kts | 185° |
| 2026-05-05 19:10 | -4.07359 | 140.87557 | 38855 ft | 478 kts | 185° |
| 2026-05-05 19:11 | -4.13953 | 140.86949 | 38858 ft | 478 kts | 185° |
| 2026-05-05 19:11 | -4.20600 | 140.86336 | 38858 ft | 478 kts | 185° |
| 2026-05-05 19:12 | -4.27239 | 140.85724 | 38864 ft | 479 kts | 185° |
| 2026-05-05 19:12 | -4.33857 | 140.85114 | 38872 ft | 480 kts | 185° |
| 2026-05-05 19:13 | -4.40508 | 140.84500 | 38896 ft | 480 kts | 185° |
| 2026-05-05 19:13 | -4.47183 | 140.83884 | 38905 ft | 481 kts | 185° |
| 2026-05-05 19:14 | -4.53858 | 140.83268 | 38918 ft | 482 kts | 185° |
| 2026-05-05 19:14 | -4.60495 | 140.82655 | 38930 ft | 483 kts | 185° |
| 2026-05-05 19:15 | -4.67216 | 140.82033 | 38937 ft | 484 kts | 185° |
| 2026-05-05 19:15 | -4.73919 | 140.81414 | 38948 ft | 484 kts | 185° |
| 2026-05-05 19:16 | -4.80653 | 140.80792 | 38954 ft | 485 kts | 185° |
| 2026-05-05 19:16 | -4.87355 | 140.80173 | 38962 ft | 486 kts | 185° |
| 2026-05-05 19:17 | -4.94112 | 140.79549 | 38963 ft | 486 kts | 185° |
| 2026-05-05 19:17 | -5.00858 | 140.78925 | 38955 ft | 486 kts | 185° |
| 2026-05-05 19:18 | -5.07567 | 140.78304 | 38944 ft | 487 kts | 185° |
| 2026-05-05 19:18 | -5.14341 | 140.77677 | 38926 ft | 488 kts | 185° |
| 2026-05-05 19:19 | -5.21097 | 140.77053 | 38929 ft | 488 kts | 185° |
| 2026-05-05 19:19 | -5.27870 | 140.76426 | 38905 ft | 489 kts | 185° |
| 2026-05-05 19:20 | -5.34623 | 140.75801 | 38898 ft | 489 kts | 185° |
| 2026-05-05 19:20 | -5.41455 | 140.75168 | 38899 ft | 490 kts | 185° |
| 2026-05-05 19:21 | -5.48198 | 140.74544 | 38889 ft | 490 kts | 185° |
| 2026-05-05 19:21 | -5.55014 | 140.73913 | 38885 ft | 491 kts | 185° |
| 2026-05-05 19:22 | -5.61811 | 140.73283 | 38884 ft | 491 kts | 185° |
| 2026-05-05 19:22 | -5.68625 | 140.72652 | 38884 ft | 491 kts | 185° |
| 2026-05-05 19:23 | -5.75421 | 140.72022 | 38882 ft | 490 kts | 185° |
| 2026-05-05 19:23 | -5.82172 | 140.71397 | 38882 ft | 490 kts | 186° |
| 2026-05-05 19:24 | -5.89000 | 140.70763 | 38883 ft | 489 kts | 186° |
| 2026-05-05 19:24 | -5.95741 | 140.70033 | 38883 ft | 489 kts | 187° |
| 2026-05-05 19:25 | -6.02501 | 140.69270 | 38886 ft | 488 kts | 187° |
| 2026-05-05 19:25 | -6.09259 | 140.68522 | 38880 ft | 488 kts | 187° |
| 2026-05-05 19:26 | -6.15965 | 140.67786 | 38874 ft | 488 kts | 187° |
| 2026-05-05 19:26 | -6.22720 | 140.67045 | 38871 ft | 487 kts | 187° |
| 2026-05-05 19:27 | -6.29456 | 140.66305 | 38876 ft | 487 kts | 187° |
| 2026-05-05 19:27 | -6.36212 | 140.65563 | 38870 ft | 487 kts | 187° |
| 2026-05-05 19:28 | -6.42954 | 140.64822 | 38871 ft | 487 kts | 187° |
| 2026-05-05 19:28 | -6.49703 | 140.64080 | 38871 ft | 488 kts | 187° |
| 2026-05-05 19:29 | -6.56472 | 140.63336 | 38873 ft | 488 kts | 187° |
| 2026-05-05 19:29 | -6.63176 | 140.62598 | 38862 ft | 488 kts | 187° |
| 2026-05-05 19:30 | -6.69942 | 140.61854 | 38873 ft | 489 kts | 187° |
| 2026-05-05 19:30 | -6.76713 | 140.61109 | 38872 ft | 489 kts | 187° |
| 2026-05-05 19:31 | -6.83502 | 140.60362 | 38877 ft | 489 kts | 187° |
| 2026-05-05 19:31 | -6.90237 | 140.59621 | 38879 ft | 489 kts | 187° |
| 2026-05-05 19:32 | -6.97015 | 140.58874 | 38880 ft | 489 kts | 187° |
| 2026-05-05 19:32 | -7.03751 | 140.58133 | 38876 ft | 489 kts | 187° |
| 2026-05-05 19:33 | -7.10526 | 140.57386 | 38879 ft | 489 kts | 187° |
| 2026-05-05 19:33 | -7.17312 | 140.56638 | 38884 ft | 489 kts | 187° |
| 2026-05-05 19:34 | -7.24049 | 140.55895 | 38879 ft | 489 kts | 187° |
| 2026-05-05 19:35 | -7.34206 | 140.54775 | 38880 ft | 489 kts | 187° |
| 2026-05-05 19:35 | -7.40971 | 140.54028 | 38873 ft | 489 kts | 187° |
| 2026-05-05 19:36 | -7.47758 | 140.53279 | 38884 ft | 489 kts | 187° |
| 2026-05-05 19:36 | -7.54516 | 140.52533 | 38875 ft | 489 kts | 187° |
| 2026-05-05 19:37 | -7.61269 | 140.51786 | 38878 ft | 489 kts | 187° |
| 2026-05-05 19:37 | -7.68051 | 140.51037 | 38874 ft | 490 kts | 187° |
| 2026-05-05 19:38 | -7.74837 | 140.50287 | 38872 ft | 491 kts | 187° |
| 2026-05-05 19:38 | -7.81626 | 140.49537 | 38873 ft | 491 kts | 187° |
| 2026-05-05 19:39 | -7.88443 | 140.48783 | 38879 ft | 492 kts | 187° |
| 2026-05-05 19:39 | -7.95277 | 140.48027 | 38885 ft | 493 kts | 187° |
| 2026-05-05 19:40 | -8.02072 | 140.47275 | 38889 ft | 494 kts | 187° |
| 2026-05-05 19:40 | -8.08918 | 140.46517 | 38880 ft | 494 kts | 187° |
| 2026-05-05 19:41 | -8.15720 | 140.45764 | 38887 ft | 495 kts | 187° |
| 2026-05-05 19:41 | -8.22560 | 140.45006 | 38893 ft | 495 kts | 187° |
| 2026-05-05 19:42 | -8.29422 | 140.44246 | 38891 ft | 495 kts | 187° |
| 2026-05-05 19:42 | -8.36284 | 140.43485 | 38888 ft | 495 kts | 187° |
| 2026-05-05 19:43 | -8.43122 | 140.42727 | 38883 ft | 496 kts | 187° |
| 2026-05-05 19:43 | -8.49994 | 140.41965 | 38884 ft | 496 kts | 187° |
| 2026-05-05 19:44 | -8.56847 | 140.41676 | 38879 ft | 496 kts | 181° |
| 2026-05-05 19:44 | -8.63761 | 140.41654 | 38889 ft | 496 kts | 181° |
| 2026-05-05 19:45 | -8.70689 | 140.41614 | 38887 ft | 496 kts | 181° |
| 2026-05-05 19:45 | -8.77598 | 140.41575 | 38887 ft | 496 kts | 181° |
| 2026-05-05 19:46 | -8.84522 | 140.41537 | 38891 ft | 496 kts | 181° |
| 2026-05-05 19:46 | -8.91381 | 140.41500 | 38898 ft | 496 kts | 181° |
| 2026-05-05 19:47 | -8.98292 | 140.41463 | 38891 ft | 495 kts | 181° |
| 2026-05-05 19:47 | -9.05188 | 140.41425 | 38890 ft | 495 kts | 181° |
| 2026-05-05 19:48 | -9.12076 | 140.41388 | 38888 ft | 494 kts | 181° |
| 2026-05-05 19:48 | -9.18967 | 140.41351 | 38891 ft | 494 kts | 181° |
| 2026-05-05 19:49 | -9.24682 | 140.41320 | 38888 ft | 493 kts | 181° |
| 2026-05-05 19:49 | -9.32652 | 140.41276 | 38887 ft | 493 kts | 181° |
| 2026-05-05 19:50 | -9.39524 | 140.41239 | 38890 ft | 492 kts | 181° |
| 2026-05-05 19:50 | -9.45229 | 140.41208 | 38890 ft | 492 kts | 181° |
| 2026-05-05 19:51 | -9.52085 | 140.41171 | 38891 ft | 492 kts | 181° |
| 2026-05-05 19:51 | -9.58906 | 140.41134 | 38876 ft | 492 kts | 181° |
| 2026-05-05 19:52 | -9.65749 | 140.41096 | 38881 ft | 492 kts | 181° |
| 2026-05-05 19:52 | -9.72594 | 140.41059 | 38888 ft | 491 kts | 181° |
| 2026-05-05 19:53 | -9.79398 | 140.41022 | 38883 ft | 491 kts | 181° |
| 2026-05-05 19:53 | -9.86231 | 140.41366 | 38894 ft | 492 kts | 173° |
| 2026-05-05 19:54 | -9.93008 | 140.42318 | 38891 ft | 491 kts | 173° |
| 2026-05-05 19:54 | -9.99798 | 140.43236 | 38888 ft | 491 kts | 173° |
| 2026-05-05 19:55 | -10.06589 | 140.44154 | 38886 ft | 491 kts | 173° |
| 2026-05-05 19:55 | -10.13317 | 140.45066 | 38895 ft | 490 kts | 174° |
| 2026-05-05 19:56 | -10.20079 | 140.45985 | 38897 ft | 489 kts | 174° |
| 2026-05-05 19:56 | -10.26817 | 140.46902 | 38896 ft | 487 kts | 174° |
| 2026-05-05 19:57 | -10.33533 | 140.47814 | 38889 ft | 486 kts | 174° |
| 2026-05-05 19:57 | -10.40257 | 140.48729 | 38888 ft | 486 kts | 174° |
| 2026-05-05 19:58 | -10.46934 | 140.49637 | 38884 ft | 485 kts | 174° |
| 2026-05-05 19:58 | -10.53624 | 140.50549 | 38887 ft | 484 kts | 174° |
| 2026-05-05 19:59 | -10.60267 | 140.51453 | 38891 ft | 484 kts | 174° |
| 2026-05-05 19:59 | -10.66950 | 140.52363 | 38891 ft | 483 kts | 174° |
| 2026-05-05 20:00 | -10.73631 | 140.53273 | 38892 ft | 483 kts | 174° |
| 2026-05-05 20:00 | -10.80308 | 140.54183 | 38896 ft | 483 kts | 174° |
| 2026-05-05 20:01 | -10.86929 | 140.55086 | 38879 ft | 483 kts | 174° |
| 2026-05-05 20:01 | -10.93612 | 140.55997 | 38880 ft | 483 kts | 174° |
| 2026-05-05 20:02 | -11.00244 | 140.56903 | 38899 ft | 483 kts | 174° |
| 2026-05-05 20:02 | -11.06922 | 140.57815 | 38890 ft | 484 kts | 174° |
| 2026-05-05 20:03 | -11.13603 | 140.58728 | 38901 ft | 484 kts | 174° |
| 2026-05-05 20:03 | -11.20292 | 140.59642 | 38910 ft | 485 kts | 174° |
| 2026-05-05 20:04 | -11.27003 | 140.60560 | 38906 ft | 485 kts | 174° |
| 2026-05-05 20:04 | -11.33664 | 140.61471 | 38891 ft | 486 kts | 174° |
| 2026-05-05 20:05 | -11.40379 | 140.62390 | 38893 ft | 486 kts | 174° |
| 2026-05-05 20:05 | -11.47101 | 140.63311 | 38902 ft | 486 kts | 174° |
| 2026-05-05 20:06 | -11.53784 | 140.64227 | 38911 ft | 487 kts | 174° |
| 2026-05-05 20:06 | -11.60515 | 140.65150 | 38912 ft | 487 kts | 174° |
| 2026-05-05 20:07 | -11.67241 | 140.66072 | 38915 ft | 488 kts | 174° |
| 2026-05-05 20:07 | -11.73940 | 140.66991 | 38903 ft | 488 kts | 174° |
| 2026-05-05 20:08 | -11.80700 | 140.67919 | 38902 ft | 489 kts | 174° |
| 2026-05-05 20:08 | -11.87406 | 140.68840 | 38919 ft | 489 kts | 175° |
| 2026-05-05 20:09 | -11.94204 | 140.69775 | 38915 ft | 489 kts | 175° |
| 2026-05-05 20:09 | -12.00954 | 140.70703 | 38916 ft | 489 kts | 175° |
| 2026-05-05 20:10 | -12.07682 | 140.71628 | 38919 ft | 490 kts | 175° |
| 2026-05-05 20:10 | -12.14446 | 140.72559 | 38908 ft | 490 kts | 175° |
| 2026-05-05 20:11 | -12.21215 | 140.73491 | 38914 ft | 490 kts | 175° |
| 2026-05-05 20:11 | -12.27952 | 140.74419 | 38915 ft | 490 kts | 175° |
| 2026-05-05 20:12 | -12.34728 | 140.75353 | 38935 ft | 490 kts | 175° |
| 2026-05-05 20:12 | -12.41472 | 140.76283 | 38941 ft | 490 kts | 175° |
| 2026-05-05 20:13 | -12.48237 | 140.77217 | 38919 ft | 491 kts | 175° |
| 2026-05-05 20:13 | -12.55016 | 140.78153 | 38914 ft | 491 kts | 175° |
| 2026-05-05 20:14 | -12.61809 | 140.79091 | 38916 ft | 491 kts | 175° |
| 2026-05-05 20:14 | -12.68577 | 140.80027 | 38925 ft | 491 kts | 175° |
| 2026-05-05 20:15 | -12.75309 | 140.80958 | 38927 ft | 491 kts | 175° |
| 2026-05-05 20:15 | -12.82087 | 140.81895 | 38927 ft | 491 kts | 175° |
| 2026-05-05 20:16 | -12.88884 | 140.82836 | 38927 ft | 491 kts | 175° |
| 2026-05-05 20:16 | -12.95669 | 140.83776 | 38928 ft | 492 kts | 175° |
| 2026-05-05 20:17 | -13.02451 | 140.84716 | 38928 ft | 492 kts | 175° |
| 2026-05-05 20:17 | -13.09220 | 140.85654 | 38932 ft | 492 kts | 175° |
| 2026-05-05 20:18 | -13.16013 | 140.86597 | 38932 ft | 492 kts | 175° |
| 2026-05-05 20:18 | -13.22808 | 140.87540 | 38933 ft | 493 kts | 175° |
| 2026-05-05 20:19 | -13.29605 | 140.88484 | 38934 ft | 493 kts | 175° |
| 2026-05-05 20:19 | -13.36374 | 140.89424 | 38935 ft | 493 kts | 175° |
| 2026-05-05 20:20 | -13.43187 | 140.90371 | 38935 ft | 493 kts | 175° |
| 2026-05-05 20:20 | -13.49993 | 140.91318 | 38935 ft | 494 kts | 175° |
| 2026-05-05 20:21 | -13.56775 | 140.92262 | 38939 ft | 494 kts | 175° |
| 2026-05-05 20:21 | -13.63590 | 140.93211 | 38942 ft | 494 kts | 175° |
| 2026-05-05 20:22 | -13.70425 | 140.94163 | 38943 ft | 494 kts | 175° |
| 2026-05-05 20:22 | -13.77218 | 140.95110 | 38937 ft | 494 kts | 175° |
| 2026-05-05 20:23 | -13.84059 | 140.96065 | 38938 ft | 494 kts | 175° |
| 2026-05-05 20:23 | -13.90856 | 140.97014 | 38941 ft | 494 kts | 175° |
| 2026-05-05 20:24 | -13.97663 | 140.97965 | 38942 ft | 494 kts | 176° |
| 2026-05-05 20:24 | -14.04496 | 140.98921 | 38941 ft | 494 kts | 176° |
| 2026-05-05 20:25 | -14.11334 | 140.99877 | 38944 ft | 494 kts | 176° |
| 2026-05-05 20:25 | -14.18126 | 141.00828 | 38941 ft | 494 kts | 176° |
| 2026-05-05 20:26 | -14.24965 | 141.01785 | 38945 ft | 494 kts | 176° |
| 2026-05-05 20:26 | -14.31790 | 141.02742 | 38944 ft | 494 kts | 176° |
| 2026-05-05 20:27 | -14.38572 | 141.03693 | 38946 ft | 494 kts | 176° |
| 2026-05-05 20:27 | -14.45400 | 141.04651 | 38949 ft | 494 kts | 176° |
| 2026-05-05 20:28 | -14.52239 | 141.05611 | 38950 ft | 494 kts | 176° |
| 2026-05-05 20:28 | -14.59052 | 141.06568 | 38946 ft | 494 kts | 176° |
| 2026-05-05 20:29 | -14.65884 | 141.07528 | 38953 ft | 494 kts | 176° |
| 2026-05-05 20:29 | -14.72663 | 141.08481 | 38952 ft | 495 kts | 177° |
| 2026-05-05 20:30 | -14.79491 | 141.09442 | 38956 ft | 495 kts | 177° |
| 2026-05-05 20:30 | -14.86324 | 141.10404 | 38957 ft | 495 kts | 177° |
| 2026-05-05 20:31 | -14.93152 | 141.11366 | 38956 ft | 495 kts | 177° |
| 2026-05-05 20:31 | -14.99951 | 141.12325 | 38948 ft | 495 kts | 177° |
| 2026-05-05 20:32 | -15.06795 | 141.13290 | 38953 ft | 495 kts | 177° |
| 2026-05-05 20:32 | -15.12480 | 141.14093 | 38956 ft | 495 kts | 177° |
| 2026-05-05 20:33 | -15.19321 | 141.15059 | 38955 ft | 496 kts | 177° |
| 2026-05-05 20:33 | -15.26163 | 141.16026 | 38955 ft | 496 kts | 177° |
| 2026-05-05 20:34 | -15.32991 | 141.16992 | 38954 ft | 497 kts | 177° |
| 2026-05-05 20:34 | -15.39853 | 141.17963 | 38955 ft | 497 kts | 177° |
| 2026-05-05 20:35 | -15.46729 | 141.18937 | 38954 ft | 497 kts | 177° |
| 2026-05-05 20:35 | -15.53595 | 141.19910 | 38957 ft | 498 kts | 177° |
| 2026-05-05 20:36 | -15.60429 | 141.20880 | 38961 ft | 498 kts | 177° |
| 2026-05-05 20:36 | -15.67306 | 141.21856 | 38956 ft | 498 kts | 177° |
| 2026-05-05 20:37 | -15.74175 | 141.22831 | 38960 ft | 498 kts | 177° |
| 2026-05-05 20:37 | -15.81054 | 141.23809 | 38960 ft | 498 kts | 177° |
| 2026-05-05 20:38 | -15.87923 | 141.24786 | 38964 ft | 498 kts | 177° |
| 2026-05-05 20:38 | -15.94805 | 141.25766 | 38967 ft | 498 kts | 177° |
| 2026-05-05 20:39 | -16.01630 | 141.26738 | 38967 ft | 498 kts | 177° |
| 2026-05-05 20:39 | -16.08508 | 141.27717 | 38967 ft | 498 kts | 177° |
| 2026-05-05 20:40 | -16.15381 | 141.28697 | 38969 ft | 497 kts | 178° |
| 2026-05-05 20:40 | -16.22245 | 141.29674 | 38973 ft | 497 kts | 178° |
| 2026-05-05 20:41 | -16.29112 | 141.30507 | 38969 ft | 496 kts | 179° |
| 2026-05-05 20:41 | -16.35986 | 141.31300 | 38971 ft | 496 kts | 179° |
| 2026-05-05 20:42 | -16.42824 | 141.32109 | 38970 ft | 496 kts | 179° |
| 2026-05-05 20:42 | -16.49696 | 141.32933 | 38971 ft | 497 kts | 179° |
| 2026-05-05 20:43 | -16.56572 | 141.33758 | 38974 ft | 497 kts | 179° |
| 2026-05-05 20:43 | -16.63444 | 141.34583 | 38975 ft | 497 kts | 179° |
| 2026-05-05 20:44 | -16.70323 | 141.35409 | 38982 ft | 497 kts | 179° |
| 2026-05-05 20:44 | -16.77165 | 141.36231 | 38985 ft | 497 kts | 179° |
| 2026-05-05 20:45 | -16.87499 | 141.37474 | 38983 ft | 498 kts | 180° |
| 2026-05-05 20:45 | -16.94351 | 141.38299 | 38990 ft | 498 kts | 180° |
| 2026-05-05 20:46 | -17.01253 | 141.39130 | 38988 ft | 498 kts | 180° |
| 2026-05-05 20:46 | -17.08148 | 141.39961 | 38992 ft | 498 kts | 180° |
| 2026-05-05 20:47 | -17.15051 | 141.40794 | 38992 ft | 499 kts | 180° |
| 2026-05-05 20:47 | -17.21966 | 141.41629 | 38997 ft | 499 kts | 180° |
| 2026-05-05 20:48 | -17.28828 | 141.42458 | 38996 ft | 499 kts | 180° |
| 2026-05-05 20:48 | -17.35750 | 141.43295 | 38995 ft | 499 kts | 180° |
| 2026-05-05 20:49 | -17.42661 | 141.44131 | 39005 ft | 500 kts | 180° |
| 2026-05-05 20:49 | -17.49560 | 141.44966 | 39008 ft | 500 kts | 180° |
| 2026-05-05 20:50 | -17.56501 | 141.45807 | 38994 ft | 501 kts | 180° |
| 2026-05-05 20:50 | -17.63431 | 141.46648 | 39001 ft | 501 kts | 180° |
| 2026-05-05 20:51 | -17.70373 | 141.47490 | 39002 ft | 502 kts | 180° |
| 2026-05-05 20:51 | -17.77328 | 141.48335 | 39006 ft | 503 kts | 180° |
| 2026-05-05 20:52 | -17.84245 | 141.49176 | 39006 ft | 503 kts | 180° |
| 2026-05-05 20:52 | -17.91216 | 141.50025 | 39011 ft | 504 kts | 180° |
| 2026-05-05 20:53 | -17.98154 | 141.50870 | 39010 ft | 504 kts | 180° |
| 2026-05-05 20:53 | -18.05139 | 141.51721 | 39011 ft | 504 kts | 180° |
| 2026-05-05 20:54 | -18.12076 | 141.52568 | 39011 ft | 505 kts | 180° |
| 2026-05-05 20:54 | -18.19073 | 141.53422 | 39017 ft | 505 kts | 181° |
| 2026-05-05 20:55 | -18.26035 | 141.54273 | 39021 ft | 505 kts | 181° |
| 2026-05-05 20:55 | -18.33040 | 141.55129 | 39018 ft | 506 kts | 181° |
| 2026-05-05 20:56 | -18.40032 | 141.55985 | 39020 ft | 506 kts | 181° |
| 2026-05-05 20:56 | -18.46994 | 141.56838 | 39026 ft | 505 kts | 181° |
| 2026-05-05 20:57 | -18.53991 | 141.57696 | 39023 ft | 505 kts | 181° |
| 2026-05-05 20:57 | -18.60998 | 141.58555 | 39022 ft | 505 kts | 181° |
| 2026-05-05 20:58 | -18.67990 | 141.59413 | 39023 ft | 505 kts | 181° |
| 2026-05-05 20:58 | -18.74941 | 141.60268 | 39029 ft | 505 kts | 181° |
| 2026-05-05 20:59 | -18.81916 | 141.61125 | 39037 ft | 504 kts | 181° |
| 2026-05-05 20:59 | -18.88891 | 141.61983 | 39031 ft | 503 kts | 181° |
| 2026-05-05 21:00 | -18.95803 | 141.62835 | 39033 ft | 503 kts | 182° |
| 2026-05-05 21:00 | -19.02759 | 141.63692 | 39032 ft | 502 kts | 182° |
| 2026-05-05 21:01 | -19.09704 | 141.64549 | 39033 ft | 501 kts | 182° |
| 2026-05-05 21:01 | -19.16603 | 141.65401 | 39028 ft | 501 kts | 182° |
| 2026-05-05 21:02 | -19.23542 | 141.66258 | 39031 ft | 501 kts | 182° |
| 2026-05-05 21:02 | -19.30463 | 141.67114 | 39035 ft | 501 kts | 182° |
| 2026-05-05 21:03 | -19.37379 | 141.67969 | 39042 ft | 501 kts | 182° |
| 2026-05-05 21:03 | -19.44285 | 141.68533 | 39039 ft | 495 kts | 186° |
| 2026-05-05 21:04 | -19.51168 | 141.68847 | 39043 ft | 495 kts | 186° |
| 2026-05-05 21:04 | -19.58056 | 141.69176 | 39043 ft | 495 kts | 186° |
| 2026-05-05 21:05 | -19.64902 | 141.69502 | 39049 ft | 495 kts | 186° |
| 2026-05-05 21:05 | -19.71793 | 141.69830 | 39048 ft | 495 kts | 186° |
| 2026-05-05 21:06 | -19.78683 | 141.70158 | 39053 ft | 496 kts | 186° |
| 2026-05-05 21:06 | -19.85593 | 141.70488 | 39052 ft | 496 kts | 186° |
| 2026-05-05 21:07 | -19.92461 | 141.70815 | 39056 ft | 496 kts | 187° |
| 2026-05-05 21:07 | -19.99350 | 141.71144 | 39055 ft | 496 kts | 187° |
| 2026-05-05 21:08 | -20.06260 | 141.71474 | 39063 ft | 496 kts | 187° |
| 2026-05-05 21:08 | -20.13135 | 141.71803 | 39061 ft | 496 kts | 187° |
| 2026-05-05 21:09 | -20.20040 | 141.72133 | 39062 ft | 496 kts | 187° |
| 2026-05-05 21:09 | -20.26948 | 141.72463 | 39063 ft | 496 kts | 187° |
| 2026-05-05 21:10 | -20.33852 | 141.72794 | 39067 ft | 496 kts | 187° |
| 2026-05-05 21:10 | -20.40753 | 141.73125 | 39063 ft | 497 kts | 187° |
| 2026-05-05 21:11 | -20.47656 | 141.73457 | 39067 ft | 497 kts | 187° |
| 2026-05-05 21:11 | -20.53402 | 141.73733 | 39071 ft | 497 kts | 187° |
| 2026-05-05 21:12 | -20.60314 | 141.74065 | 39070 ft | 497 kts | 187° |
| 2026-05-05 21:12 | -20.67233 | 141.74398 | 39070 ft | 497 kts | 187° |
| 2026-05-05 21:13 | -20.74084 | 141.74728 | 39079 ft | 497 kts | 187° |
| 2026-05-05 21:13 | -20.80994 | 141.75061 | 39076 ft | 497 kts | 187° |
| 2026-05-05 21:14 | -20.87899 | 141.75393 | 39078 ft | 497 kts | 187° |
| 2026-05-05 21:14 | -20.94812 | 141.75727 | 39080 ft | 496 kts | 187° |
| 2026-05-05 21:15 | -21.01715 | 141.76060 | 39080 ft | 496 kts | 187° |
| 2026-05-05 21:15 | -21.08578 | 141.76392 | 39085 ft | 496 kts | 187° |
| 2026-05-05 21:16 | -21.15495 | 141.76727 | 39086 ft | 496 kts | 187° |
| 2026-05-05 21:16 | -21.22395 | 141.77062 | 39083 ft | 496 kts | 187° |
| 2026-05-05 21:17 | -21.29283 | 141.77396 | 39082 ft | 496 kts | 187° |
| 2026-05-05 21:17 | -21.36133 | 141.77728 | 39086 ft | 496 kts | 187° |
| 2026-05-05 21:18 | -21.43021 | 141.78063 | 39096 ft | 495 kts | 187° |
| 2026-05-05 21:18 | -21.49920 | 141.78399 | 39092 ft | 495 kts | 187° |
| 2026-05-05 21:19 | -21.56804 | 141.78734 | 39096 ft | 495 kts | 187° |
| 2026-05-05 21:19 | -21.63711 | 141.79071 | 39098 ft | 495 kts | 187° |
| 2026-05-05 21:20 | -21.70605 | 141.79408 | 39099 ft | 495 kts | 187° |
| 2026-05-05 21:20 | -21.77448 | 141.79742 | 39107 ft | 495 kts | 187° |
| 2026-05-05 21:21 | -21.84341 | 141.80079 | 39110 ft | 495 kts | 187° |
| 2026-05-05 21:21 | -21.91242 | 141.80418 | 39112 ft | 495 kts | 187° |
| 2026-05-05 21:22 | -21.98123 | 141.80755 | 39111 ft | 495 kts | 187° |
| 2026-05-05 21:22 | -22.05020 | 141.81093 | 39112 ft | 495 kts | 187° |
| 2026-05-05 21:23 | -22.11858 | 141.81428 | 39113 ft | 495 kts | 187° |
| 2026-05-05 21:23 | -22.18758 | 141.81767 | 39114 ft | 495 kts | 187° |
| 2026-05-05 21:24 | -22.25644 | 141.82106 | 39113 ft | 495 kts | 187° |
| 2026-05-05 21:24 | -22.32532 | 141.82446 | 39117 ft | 495 kts | 187° |
| 2026-05-05 21:25 | -22.39429 | 141.82786 | 39117 ft | 495 kts | 187° |
| 2026-05-05 21:25 | -22.46287 | 141.83124 | 39115 ft | 496 kts | 187° |
| 2026-05-05 21:26 | -22.53192 | 141.83465 | 39115 ft | 496 kts | 187° |
| 2026-05-05 21:26 | -22.60106 | 141.83807 | 39124 ft | 496 kts | 187° |
| 2026-05-05 21:27 | -22.66964 | 141.84146 | 39120 ft | 496 kts | 187° |
| 2026-05-05 21:27 | -22.73885 | 141.84572 | 39121 ft | 498 kts | 186° |
| 2026-05-05 21:28 | -22.80814 | 141.85062 | 39123 ft | 498 kts | 186° |
| 2026-05-05 21:28 | -22.87694 | 141.85531 | 39127 ft | 498 kts | 186° |
| 2026-05-05 21:29 | -22.94618 | 141.85995 | 39129 ft | 498 kts | 186° |
| 2026-05-05 21:29 | -23.01554 | 141.86461 | 39128 ft | 499 kts | 186° |
| 2026-05-05 21:30 | -23.08491 | 141.86927 | 39129 ft | 499 kts | 186° |
| 2026-05-05 21:30 | -23.15374 | 141.87390 | 39128 ft | 499 kts | 186° |
| 2026-05-05 21:31 | -23.22318 | 141.87859 | 39133 ft | 499 kts | 187° |
| 2026-05-05 21:31 | -23.29265 | 141.88327 | 39133 ft | 499 kts | 187° |
| 2026-05-05 21:32 | -23.36202 | 141.88795 | 39132 ft | 499 kts | 187° |
| 2026-05-05 21:32 | -23.43107 | 141.89261 | 39138 ft | 500 kts | 187° |
| 2026-05-05 21:33 | -23.50047 | 141.89731 | 39141 ft | 500 kts | 187° |
| 2026-05-05 21:33 | -23.57011 | 141.90203 | 39140 ft | 500 kts | 187° |
| 2026-05-05 21:34 | -23.63959 | 141.90674 | 39140 ft | 500 kts | 187° |
| 2026-05-05 21:34 | -23.70920 | 141.91146 | 39146 ft | 500 kts | 187° |
| 2026-05-05 21:35 | -23.77837 | 141.91617 | 39144 ft | 500 kts | 187° |
| 2026-05-05 21:35 | -23.84808 | 141.92090 | 39145 ft | 501 kts | 187° |
| 2026-05-05 21:36 | -23.91780 | 141.92565 | 39148 ft | 501 kts | 187° |
| 2026-05-05 21:36 | -23.98715 | 141.93037 | 39150 ft | 502 kts | 187° |
| 2026-05-05 21:37 | -24.05693 | 141.93513 | 39155 ft | 502 kts | 187° |
| 2026-05-05 21:37 | -24.12666 | 141.93989 | 39157 ft | 502 kts | 187° |
| 2026-05-05 21:38 | -24.19652 | 141.94467 | 39158 ft | 502 kts | 187° |
| 2026-05-05 21:38 | -24.26629 | 141.94945 | 39162 ft | 503 kts | 187° |
| 2026-05-05 21:39 | -24.33584 | 141.95422 | 39161 ft | 503 kts | 187° |
| 2026-05-05 21:39 | -24.40580 | 141.95902 | 39163 ft | 503 kts | 187° |
| 2026-05-05 21:40 | -24.47588 | 141.96383 | 39164 ft | 504 kts | 187° |
| 2026-05-05 21:40 | -24.54585 | 141.96864 | 39167 ft | 504 kts | 187° |
| 2026-05-05 21:41 | -24.61550 | 141.97343 | 39166 ft | 504 kts | 187° |
| 2026-05-05 21:41 | -24.68562 | 141.97826 | 39171 ft | 504 kts | 187° |
| 2026-05-05 21:42 | -24.75589 | 141.98311 | 39175 ft | 505 kts | 187° |
| 2026-05-05 21:42 | -24.82575 | 141.98794 | 39179 ft | 505 kts | 187° |
| 2026-05-05 21:43 | -24.89601 | 141.99280 | 39183 ft | 505 kts | 187° |
| 2026-05-05 21:43 | -24.96577 | 141.99763 | 39182 ft | 505 kts | 187° |
| 2026-05-05 21:44 | -25.03612 | 142.00474 | 39183 ft | 510 kts | 183° |
| 2026-05-05 21:44 | -25.10667 | 142.01427 | 39183 ft | 510 kts | 183° |
| 2026-05-05 21:45 | -25.17721 | 142.02366 | 39184 ft | 510 kts | 183° |
| 2026-05-05 21:45 | -25.24729 | 142.03302 | 39187 ft | 510 kts | 183° |
| 2026-05-05 21:46 | -25.31780 | 142.04246 | 39185 ft | 510 kts | 183° |
| 2026-05-05 21:46 | -25.38842 | 142.05192 | 39188 ft | 510 kts | 183° |
| 2026-05-05 21:47 | -25.45900 | 142.06140 | 39191 ft | 510 kts | 183° |
| 2026-05-05 21:47 | -25.52918 | 142.07083 | 39194 ft | 510 kts | 183° |
| 2026-05-05 21:48 | -25.59971 | 142.08031 | 39193 ft | 510 kts | 183° |
| 2026-05-05 21:48 | -25.67024 | 142.08981 | 39193 ft | 510 kts | 183° |
| 2026-05-05 21:49 | -25.74040 | 142.09927 | 39195 ft | 510 kts | 183° |
| 2026-05-05 21:49 | -25.81103 | 142.10881 | 39202 ft | 510 kts | 183° |
| 2026-05-05 21:50 | -25.88172 | 142.11836 | 39201 ft | 510 kts | 183° |
| 2026-05-05 21:50 | -25.95229 | 142.12791 | 39202 ft | 510 kts | 183° |
| 2026-05-05 21:51 | -26.02230 | 142.13740 | 39204 ft | 510 kts | 183° |
| 2026-05-05 21:51 | -26.09287 | 142.14697 | 39205 ft | 509 kts | 183° |
| 2026-05-05 21:52 | -26.19828 | 142.16129 | 39210 ft | 509 kts | 182° |
| 2026-05-05 21:53 | -26.26870 | 142.17087 | 39209 ft | 509 kts | 182° |
| 2026-05-05 21:53 | -26.33909 | 142.18045 | 39215 ft | 509 kts | 182° |
| 2026-05-05 21:54 | -26.40947 | 142.19005 | 39215 ft | 509 kts | 182° |
| 2026-05-05 21:54 | -26.47978 | 142.19965 | 39212 ft | 508 kts | 182° |
| 2026-05-05 21:55 | -26.54958 | 142.20919 | 39216 ft | 508 kts | 182° |
| 2026-05-05 21:55 | -26.61979 | 142.21880 | 39213 ft | 508 kts | 182° |
| 2026-05-05 21:56 | -26.69003 | 142.22843 | 39216 ft | 508 kts | 182° |
| 2026-05-05 21:56 | -26.76024 | 142.23806 | 39223 ft | 508 kts | 182° |
| 2026-05-05 21:57 | -26.83007 | 142.24766 | 39221 ft | 507 kts | 182° |
| 2026-05-05 21:57 | -26.88884 | 142.25575 | 39221 ft | 507 kts | 182° |
| 2026-05-05 21:58 | -26.95848 | 142.26534 | 39222 ft | 507 kts | 182° |
| 2026-05-05 21:58 | -27.02848 | 142.27499 | 39227 ft | 506 kts | 182° |
| 2026-05-05 21:59 | -27.09852 | 142.28466 | 39225 ft | 506 kts | 182° |
| 2026-05-05 21:59 | -27.16814 | 142.29428 | 39228 ft | 506 kts | 182° |
| 2026-05-05 22:00 | -27.23811 | 142.30396 | 39230 ft | 506 kts | 182° |
| 2026-05-05 22:00 | -27.30801 | 142.31364 | 39235 ft | 505 kts | 182° |
| 2026-05-05 22:01 | -27.37777 | 142.32333 | 39235 ft | 505 kts | 182° |
| 2026-05-05 22:01 | -27.44721 | 142.33297 | 39235 ft | 505 kts | 182° |
| 2026-05-05 22:02 | -27.51695 | 142.34268 | 39235 ft | 504 kts | 182° |
| 2026-05-05 22:02 | -27.58678 | 142.35242 | 39237 ft | 503 kts | 182° |
| 2026-05-05 22:03 | -27.65590 | 142.36205 | 39237 ft | 504 kts | 181° |
| 2026-05-05 22:03 | -27.72568 | 142.37179 | 39239 ft | 504 kts | 181° |
| 2026-05-05 22:04 | -27.79518 | 142.38152 | 39232 ft | 503 kts | 181° |
| 2026-05-05 22:04 | -27.86440 | 142.39121 | 39239 ft | 504 kts | 181° |
| 2026-05-05 22:05 | -27.93410 | 142.40097 | 39248 ft | 504 kts | 181° |
| 2026-05-05 22:05 | -28.00394 | 142.41078 | 39251 ft | 504 kts | 181° |
| 2026-05-05 22:06 | -28.07321 | 142.42052 | 39246 ft | 503 kts | 181° |
| 2026-05-05 22:06 | -28.14260 | 142.43030 | 39249 ft | 502 kts | 181° |
| 2026-05-05 22:07 | -28.21209 | 142.44008 | 39250 ft | 502 kts | 181° |
| 2026-05-05 22:07 | -28.28143 | 142.44986 | 39249 ft | 502 kts | 181° |
| 2026-05-05 22:08 | -28.35086 | 142.45967 | 39251 ft | 502 kts | 181° |
| 2026-05-05 22:08 | -28.41989 | 142.46943 | 39256 ft | 502 kts | 181° |
| 2026-05-05 22:09 | -28.48933 | 142.47923 | 39263 ft | 502 kts | 181° |
| 2026-05-05 22:09 | -28.55871 | 142.48822 | 39259 ft | 501 kts | 181° |
| 2026-05-05 22:10 | -28.62765 | 142.49701 | 39267 ft | 501 kts | 181° |
| 2026-05-05 22:10 | -28.69696 | 142.50598 | 39268 ft | 501 kts | 181° |
| 2026-05-05 22:11 | -28.76630 | 142.51500 | 39266 ft | 501 kts | 181° |
| 2026-05-05 22:11 | -28.83549 | 142.52401 | 39267 ft | 500 kts | 181° |
| 2026-05-05 22:12 | -28.90436 | 142.53300 | 39266 ft | 500 kts | 181° |
| 2026-05-05 22:12 | -28.97340 | 142.54201 | 39269 ft | 499 kts | 181° |
| 2026-05-05 22:13 | -29.04249 | 142.55104 | 39264 ft | 499 kts | 181° |
| 2026-05-05 22:13 | -29.11163 | 142.56010 | 39270 ft | 499 kts | 181° |
| 2026-05-05 22:14 | -29.18058 | 142.56914 | 39272 ft | 498 kts | 180° |
| 2026-05-05 22:14 | -29.24950 | 142.57819 | 39271 ft | 498 kts | 180° |
| 2026-05-05 22:15 | -29.31831 | 142.58724 | 39281 ft | 498 kts | 180° |
| 2026-05-05 22:15 | -29.38664 | 142.59623 | 39273 ft | 497 kts | 180° |
| 2026-05-05 22:16 | -29.45543 | 142.60530 | 39271 ft | 497 kts | 180° |
| 2026-05-05 22:16 | -29.52409 | 142.61437 | 39269 ft | 496 kts | 180° |
| 2026-05-05 22:17 | -29.59284 | 142.62346 | 39270 ft | 496 kts | 180° |
| 2026-05-05 22:17 | -29.66149 | 142.63255 | 39271 ft | 496 kts | 180° |
| 2026-05-05 22:18 | -29.72969 | 142.64159 | 39270 ft | 496 kts | 180° |
| 2026-05-05 22:18 | -29.79832 | 142.65070 | 39271 ft | 496 kts | 180° |
| 2026-05-05 22:19 | -29.86690 | 142.65982 | 39274 ft | 496 kts | 180° |
| 2026-05-05 22:19 | -29.93553 | 142.66895 | 39278 ft | 496 kts | 180° |
| 2026-05-05 22:20 | -30.00371 | 142.67804 | 39284 ft | 495 kts | 180° |
| 2026-05-05 22:20 | -30.07224 | 142.68719 | 39277 ft | 495 kts | 180° |
| 2026-05-05 22:21 | -30.14064 | 142.69633 | 39282 ft | 495 kts | 180° |
| 2026-05-05 22:21 | -30.20912 | 142.70549 | 39280 ft | 495 kts | 180° |
| 2026-05-05 22:22 | -30.27753 | 142.71467 | 39289 ft | 494 kts | 180° |
| 2026-05-05 22:22 | -30.34509 | 142.72376 | 39285 ft | 491 kts | 180° |
| 2026-05-05 22:23 | -30.41316 | 142.73289 | 39285 ft | 492 kts | 180° |
| 2026-05-05 22:23 | -30.48120 | 142.74205 | 39283 ft | 491 kts | 180° |
| 2026-05-05 22:24 | -30.54930 | 142.75122 | 39285 ft | 491 kts | 180° |
| 2026-05-05 22:24 | -30.61678 | 142.76033 | 39285 ft | 491 kts | 180° |
| 2026-05-05 22:25 | -30.68468 | 142.76951 | 39283 ft | 491 kts | 180° |
| 2026-05-05 22:25 | -30.75258 | 142.77871 | 39282 ft | 490 kts | 180° |
| 2026-05-05 22:26 | -30.82050 | 142.78791 | 39284 ft | 490 kts | 180° |
| 2026-05-05 22:26 | -30.88836 | 142.79712 | 39286 ft | 490 kts | 180° |
| 2026-05-05 22:27 | -30.95570 | 142.80627 | 39288 ft | 490 kts | 180° |
| 2026-05-05 22:27 | -31.02314 | 142.81009 | 39293 ft | 481 kts | 189° |
| 2026-05-05 22:28 | -31.08960 | 142.80411 | 39288 ft | 478 kts | 191° |
| 2026-05-05 22:28 | -31.15609 | 142.79821 | 39293 ft | 479 kts | 191° |
| 2026-05-05 22:29 | -31.22253 | 142.79229 | 39292 ft | 479 kts | 191° |
| 2026-05-05 22:29 | -31.28900 | 142.78631 | 39293 ft | 479 kts | 191° |
| 2026-05-05 22:30 | -31.35517 | 142.78032 | 39291 ft | 479 kts | 191° |
| 2026-05-05 22:30 | -31.42170 | 142.77430 | 39296 ft | 479 kts | 191° |
| 2026-05-05 22:31 | -31.48781 | 142.76830 | 39297 ft | 478 kts | 191° |
| 2026-05-05 22:31 | -31.55426 | 142.76226 | 39290 ft | 479 kts | 191° |
| 2026-05-05 22:32 | -31.62032 | 142.75626 | 39295 ft | 478 kts | 191° |
| 2026-05-05 22:32 | -31.68672 | 142.75022 | 39293 ft | 478 kts | 191° |
| 2026-05-05 22:33 | -31.75330 | 142.74415 | 39293 ft | 478 kts | 191° |
| 2026-05-05 22:33 | -31.81938 | 142.73811 | 39294 ft | 478 kts | 191° |
| 2026-05-05 22:34 | -31.88578 | 142.73204 | 39294 ft | 478 kts | 191° |
| 2026-05-05 22:34 | -31.95229 | 142.72595 | 39294 ft | 478 kts | 190° |
| 2026-05-05 22:35 | -32.01874 | 142.71985 | 39291 ft | 478 kts | 190° |
| 2026-05-05 22:35 | -32.08507 | 142.71376 | 39294 ft | 478 kts | 190° |
| 2026-05-05 22:36 | -32.15116 | 142.70768 | 39293 ft | 478 kts | 190° |
| 2026-05-05 22:36 | -32.21733 | 142.70159 | 39293 ft | 478 kts | 190° |
| 2026-05-05 22:37 | -32.28374 | 142.69546 | 39285 ft | 478 kts | 190° |
| 2026-05-05 22:37 | -32.35010 | 142.68933 | 39287 ft | 478 kts | 190° |
| 2026-05-05 22:38 | -32.41640 | 142.68320 | 39290 ft | 478 kts | 190° |
| 2026-05-05 22:38 | -32.48243 | 142.67709 | 39293 ft | 478 kts | 190° |
| 2026-05-05 22:39 | -32.54874 | 142.67093 | 39292 ft | 478 kts | 190° |
| 2026-05-05 22:39 | -32.61506 | 142.66475 | 39292 ft | 478 kts | 190° |
| 2026-05-05 22:40 | -32.68103 | 142.65861 | 39286 ft | 478 kts | 190° |
| 2026-05-05 22:40 | -32.74732 | 142.65244 | 39292 ft | 478 kts | 189° |
| 2026-05-05 22:41 | -32.81372 | 142.64625 | 39293 ft | 477 kts | 189° |
| 2026-05-05 22:41 | -32.87962 | 142.64008 | 39291 ft | 477 kts | 189° |
| 2026-05-05 22:42 | -32.94590 | 142.63388 | 39288 ft | 477 kts | 189° |
| 2026-05-05 22:42 | -33.01218 | 142.62766 | 39287 ft | 477 kts | 189° |
| 2026-05-05 22:43 | -33.07797 | 142.62148 | 39290 ft | 477 kts | 189° |
| 2026-05-05 22:43 | -33.14416 | 142.61526 | 39292 ft | 476 kts | 189° |
| 2026-05-05 22:44 | -33.21042 | 142.60902 | 39288 ft | 476 kts | 189° |
| 2026-05-05 22:44 | -33.27614 | 142.60282 | 39292 ft | 476 kts | 189° |
| 2026-05-05 22:45 | -33.34234 | 142.59656 | 39288 ft | 476 kts | 189° |
| 2026-05-05 22:45 | -33.40841 | 142.59031 | 39287 ft | 476 kts | 189° |
| 2026-05-05 22:46 | -33.47411 | 142.58409 | 39286 ft | 476 kts | 189° |
| 2026-05-05 22:46 | -33.53985 | 142.57785 | 39287 ft | 475 kts | 189° |
| 2026-05-05 22:47 | -33.59479 | 142.57263 | 39288 ft | 475 kts | 189° |
| 2026-05-05 22:47 | -33.66076 | 142.56636 | 39285 ft | 475 kts | 189° |
| 2026-05-05 22:48 | -33.72690 | 142.56006 | 39284 ft | 475 kts | 189° |
| 2026-05-05 22:48 | -33.79252 | 142.55454 | 39284 ft | 478 kts | 185° |
| 2026-05-05 22:49 | -33.85910 | 142.56519 | 39282 ft | 488 kts | 168° |
| 2026-05-05 22:49 | -33.92218 | 142.59677 | 39276 ft | 494 kts | 156° |
| 2026-05-05 22:50 | -33.98374 | 142.63395 | 39278 ft | 494 kts | 157° |
| 2026-05-05 22:50 | -34.04499 | 142.67063 | 39277 ft | 494 kts | 157° |
| 2026-05-05 22:51 | -34.10666 | 142.70768 | 39279 ft | 494 kts | 157° |
| 2026-05-05 22:51 | -34.16792 | 142.74458 | 39280 ft | 494 kts | 157° |
| 2026-05-05 22:52 | -34.22964 | 142.78181 | 39277 ft | 494 kts | 157° |
| 2026-05-05 22:52 | -34.29102 | 142.81891 | 39283 ft | 495 kts | 157° |
| 2026-05-05 22:53 | -34.35273 | 142.85626 | 39276 ft | 495 kts | 157° |
| 2026-05-05 22:53 | -34.41429 | 142.89358 | 39277 ft | 495 kts | 157° |
| 2026-05-05 22:54 | -34.47564 | 142.93083 | 39269 ft | 495 kts | 157° |
| 2026-05-05 22:54 | -34.53731 | 142.96833 | 39275 ft | 495 kts | 157° |
| 2026-05-05 22:55 | -34.59856 | 143.00565 | 39277 ft | 495 kts | 157° |
| 2026-05-05 22:55 | -34.66024 | 143.04328 | 39272 ft | 495 kts | 157° |
| 2026-05-05 22:56 | -34.72185 | 143.08093 | 39200 ft | 495 kts | 156° |
| 2026-05-05 22:56 | -34.78328 | 143.11854 | 39265 ft | 498 kts | 156° |
| 2026-05-05 22:57 | -34.84521 | 143.15653 | 39265 ft | 497 kts | 156° |
| 2026-05-05 22:57 | -34.90673 | 143.19434 | 39267 ft | 497 kts | 156° |
| 2026-05-05 22:58 | -34.96843 | 143.23269 | 39266 ft | 497 kts | 154° |
| 2026-05-05 22:58 | -35.02730 | 143.27668 | 39259 ft | 499 kts | 152° |
| 2026-05-05 22:59 | -35.08640 | 143.32110 | 39263 ft | 498 kts | 152° |
| 2026-05-05 22:59 | -35.14543 | 143.36555 | 39262 ft | 498 kts | 152° |
| 2026-05-05 23:00 | -35.23371 | 143.43227 | 39256 ft | 498 kts | 152° |
| 2026-05-05 23:00 | -35.29243 | 143.47676 | 39253 ft | 498 kts | 152° |
| 2026-05-05 23:01 | -35.35162 | 143.52168 | 39257 ft | 498 kts | 152° |
| 2026-05-05 23:01 | -35.41014 | 143.56617 | 39258 ft | 498 kts | 152° |
| 2026-05-05 23:02 | -35.46912 | 143.61110 | 39328 ft | 498 kts | 152° |
| 2026-05-05 23:02 | -35.52767 | 143.65574 | 39256 ft | 499 kts | 152° |
| 2026-05-05 23:03 | -35.58664 | 143.70080 | 39229 ft | 498 kts | 152° |
| 2026-05-05 23:03 | -35.61615 | 143.72339 | 39026 ft | 497 kts | 152° |
| 2026-05-05 23:03 | -35.64554 | 143.74590 | 38778 ft | 496 kts | 152° |
| 2026-05-05 23:04 | -35.67481 | 143.76834 | 38510 ft | 495 kts | 152° |
| 2026-05-05 23:04 | -35.70371 | 143.79052 | 38237 ft | 495 kts | 152° |
| 2026-05-05 23:04 | -35.73294 | 143.81296 | 37965 ft | 495 kts | 152° |
| 2026-05-05 23:04 | -35.76219 | 143.83544 | 37699 ft | 495 kts | 152° |
| 2026-05-05 23:05 | -35.79144 | 143.85794 | 37444 ft | 494 kts | 152° |
| 2026-05-05 23:05 | -35.82064 | 143.88042 | 37273 ft | 493 kts | 152° |
| 2026-05-05 23:05 | -35.87858 | 143.92510 | 37254 ft | 496 kts | 152° |
| 2026-05-05 23:06 | -35.93718 | 143.97036 | 37251 ft | 496 kts | 152° |
| 2026-05-05 23:06 | -35.99576 | 144.01569 | 37249 ft | 496 kts | 152° |
| 2026-05-05 23:07 | -36.05398 | 144.06082 | 37254 ft | 496 kts | 152° |
| 2026-05-05 23:07 | -36.11245 | 144.10622 | 37252 ft | 496 kts | 152° |
| 2026-05-05 23:08 | -36.17104 | 144.15179 | 37088 ft | 495 kts | 152° |
| 2026-05-05 23:08 | -36.19989 | 144.17427 | 36521 ft | 495 kts | 152° |
| 2026-05-05 23:08 | -36.22922 | 144.19713 | 35676 ft | 497 kts | 152° |
| 2026-05-05 23:09 | -36.25865 | 144.22007 | 34622 ft | 500 kts | 152° |
| 2026-05-05 23:09 | -36.28829 | 144.24321 | 33263 ft | 504 kts | 152° |
| 2026-05-05 23:09 | -36.31778 | 144.26626 | 31878 ft | 507 kts | 152° |
| 2026-05-05 23:09 | -36.34772 | 144.28971 | 30433 ft | 509 kts | 152° |
| 2026-05-05 23:10 | -36.37762 | 144.31314 | 29161 ft | 505 kts | 152° |
| 2026-05-05 23:10 | -36.40713 | 144.33631 | 28409 ft | 496 kts | 152° |
| 2026-05-05 23:10 | -36.43583 | 144.35889 | 28110 ft | 481 kts | 152° |
| 2026-05-05 23:10 | -36.46395 | 144.38100 | 27456 ft | 474 kts | 152° |
| 2026-05-05 23:11 | -36.49173 | 144.40282 | 26792 ft | 469 kts | 152° |
| 2026-05-05 23:11 | -36.51921 | 144.42440 | 26138 ft | 464 kts | 152° |
| 2026-05-05 23:11 | -36.54605 | 144.44551 | 25484 ft | 460 kts | 152° |
| 2026-05-05 23:11 | -36.57303 | 144.46676 | 24787 ft | 457 kts | 152° |
| 2026-05-05 23:12 | -36.59969 | 144.48779 | 24288 ft | 450 kts | 152° |
| 2026-05-05 23:12 | -36.62580 | 144.50843 | 23872 ft | 439 kts | 152° |
| 2026-05-05 23:12 | -36.65164 | 144.52884 | 23090 ft | 437 kts | 152° |
| 2026-05-05 23:12 | -36.67718 | 144.54903 | 22528 ft | 430 kts | 152° |
| 2026-05-05 23:13 | -36.70194 | 144.56862 | 21912 ft | 424 kts | 152° |
| 2026-05-05 23:13 | -36.72665 | 144.58818 | 21286 ft | 418 kts | 152° |
| 2026-05-05 23:13 | -36.75112 | 144.60756 | 20670 ft | 413 kts | 152° |
| 2026-05-05 23:13 | -36.77528 | 144.62671 | 20064 ft | 407 kts | 152° |
| 2026-05-05 23:14 | -36.79985 | 144.64349 | 19442 ft | 397 kts | 160° |
| 2026-05-05 23:14 | -36.82562 | 144.65510 | 18846 ft | 388 kts | 168° |
| 2026-05-05 23:14 | -36.85110 | 144.66175 | 18248 ft | 379 kts | 175° |
| 2026-05-05 23:14 | -36.87683 | 144.66702 | 17685 ft | 372 kts | 174° |
| 2026-05-05 23:15 | -36.90213 | 144.67250 | 17122 ft | 365 kts | 174° |
| 2026-05-05 23:15 | -36.92688 | 144.67797 | 16578 ft | 358 kts | 174° |
| 2026-05-05 23:15 | -36.95089 | 144.68331 | 16036 ft | 352 kts | 174° |
| 2026-05-05 23:15 | -36.97481 | 144.68861 | 15504 ft | 347 kts | 174° |
| 2026-05-05 23:16 | -36.99841 | 144.69384 | 14973 ft | 341 kts | 173° |
| 2026-05-05 23:16 | -37.02166 | 144.69899 | 14452 ft | 336 kts | 173° |
| 2026-05-05 23:16 | -37.04490 | 144.70412 | 13960 ft | 345 kts | 173° |
| 2026-05-05 23:16 | -37.06868 | 144.70935 | 13653 ft | 348 kts | 173° |
| 2026-05-05 23:17 | -37.09266 | 144.71465 | 13040 ft | 350 kts | 173° |
| 2026-05-05 23:17 | -37.11657 | 144.71995 | 12241 ft | 353 kts | 173° |
| 2026-05-05 23:17 | -37.14040 | 144.72527 | 11753 ft | 343 kts | 173° |
| 2026-05-05 23:17 | -37.16358 | 144.73047 | 11234 ft | 334 kts | 173° |
| 2026-05-05 23:18 | -37.18622 | 144.73572 | 10615 ft | 328 kts | 172° |
| 2026-05-05 23:18 | -37.20842 | 144.74160 | 10204 ft | 319 kts | 171° |
| 2026-05-05 23:18 | -37.22947 | 144.74746 | 10009 ft | 300 kts | 171° |
| 2026-05-05 23:18 | -37.24934 | 144.75300 | 9753 ft | 285 kts | 171° |
| 2026-05-05 23:19 | -37.26851 | 144.75822 | 9246 ft | 279 kts | 171° |
| 2026-05-05 23:19 | -37.28714 | 144.76322 | 9043 ft | 272 kts | 171° |
| 2026-05-05 23:19 | -37.30567 | 144.76813 | 8930 ft | 276 kts | 171° |
| 2026-05-05 23:19 | -37.32459 | 144.77315 | 8934 ft | 278 kts | 171° |
| 2026-05-05 23:20 | -37.34358 | 144.77741 | 9007 ft | 275 kts | 175° |
| 2026-05-05 23:20 | -37.35611 | 144.77956 | 9003 ft | 274 kts | 175° |
| 2026-05-05 23:20 | -37.37285 | 144.78245 | 9009 ft | 275 kts | 175° |
| 2026-05-05 23:21 | -37.39176 | 144.78573 | 8876 ft | 274 kts | 175° |
| 2026-05-05 23:21 | -37.41070 | 144.78904 | 8400 ft | 277 kts | 175° |
| 2026-05-05 23:21 | -37.42976 | 144.79238 | 7864 ft | 276 kts | 174° |
| 2026-05-05 23:21 | -37.44846 | 144.79558 | 7626 ft | 265 kts | 176° |
| 2026-05-05 23:22 | -37.46717 | 144.79494 | 7467 ft | 269 kts | 191° |
| 2026-05-05 23:22 | -37.48491 | 144.78822 | 7259 ft | 264 kts | 204° |
| 2026-05-05 23:22 | -37.50179 | 144.77963 | 7053 ft | 265 kts | 203° |
| 2026-05-05 23:22 | -37.51895 | 144.77118 | 6843 ft | 264 kts | 202° |
| 2026-05-05 23:23 | -37.53613 | 144.76292 | 6625 ft | 264 kts | 202° |
| 2026-05-05 23:23 | -37.55333 | 144.75478 | 6427 ft | 263 kts | 202° |
| 2026-05-05 23:23 | -37.57051 | 144.74670 | 6213 ft | 263 kts | 202° |
| 2026-05-05 23:23 | -37.58785 | 144.73952 | 6024 ft | 262 kts | 195° |
| 2026-05-05 23:24 | -37.59984 | 144.73690 | 5852 ft | 264 kts | 188° |